Time,TemperatureF,DewpointF,PressureIn,WindDirection,WindDirectionDegrees,WindSpeedMPH,WindSpeedGustMPH,Humidity,HourlyPrecipIn,Conditions,Clouds,dailyrainin,SoftwareType,DateUTC
2013-04-28 00:00:00,53.3,38.5,30.27,SSE,163,0.0,2.0,57,0.00,,---,0.00,VWS V14.01,2013-04-28 04:00:00,
2013-04-28 00:01:00,53.3,38.5,30.27,SSE,164,0.0,2.0,57,0.00,,---,0.00,VWS V14.01,2013-04-28 04:01:00,
2013-04-28 00:06:00,53.4,38.6,30.27,SSE,159,2.0,2.0,57,0.00,,---,0.00,VWS V14.01,2013-04-28 04:06:00,
2013-04-28 00:07:00,53.5,38.7,30.27,SSE,158,1.0,3.0,57,0.00,,---,0.00,VWS V14.01,2013-04-28 04:07:00,
2013-04-28 00:11:00,53.5,38.7,30.26,South,171,0.0,3.0,57,0.00,,---,0.00,VWS V14.01,2013-04-28 04:11:00,
2013-04-28 00:12:00,53.5,38.7,30.26,South,171,0.0,3.0,57,0.00,,---,0.00,VWS V14.01,2013-04-28 04:12:00,
2013-04-28 00:16:00,53.5,39.1,30.26,South,173,0.0,3.0,58,0.00,,---,0.00,VWS V14.01,2013-04-28 04:16:00,
2013-04-28 00:17:00,53.5,39.1,30.26,South,173,0.0,3.0,58,0.00,,---,0.00,VWS V14.01,2013-04-28 04:17:00,
2013-04-28 00:18:00,53.4,39.0,30.26,South,173,0.0,3.0,58,0.00,,---,0.00,VWS V14.01,2013-04-28 04:18:00,
2013-04-28 00:21:00,53.4,39.0,30.27,South,172,0.0,3.0,58,0.00,,---,0.00,VWS V14.01,2013-04-28 04:21:00,
2013-04-28 00:22:00,53.4,39.0,30.27,South,173,0.0,3.0,58,0.00,,---,0.00,VWS V14.01,2013-04-28 04:22:00,
2013-04-28 00:23:00,53.4,39.0,30.27,South,173,0.0,3.0,58,0.00,,---,0.00,VWS V14.01,2013-04-28 04:23:00,
2013-04-28 00:26:00,53.2,39.3,30.27,SSW,209,0.0,3.0,59,0.00,,---,0.00,VWS V14.01,2013-04-28 04:26:00,
2013-04-28 00:28:00,53.1,39.2,30.27,SSW,209,0.0,3.0,59,0.00,,---,0.00,VWS V14.01,2013-04-28 04:28:00,
2013-04-28 00:29:00,53.0,39.1,30.26,SSW,209,0.0,3.0,59,0.00,,---,0.00,VWS V14.01,2013-04-28 04:29:00,
2013-04-28 00:31:00,53.0,39.1,30.26,SSW,209,0.0,3.0,59,0.00,,---,0.00,VWS V14.01,2013-04-28 04:31:00,
2013-04-28 00:33:00,52.9,39.0,30.26,SSW,209,0.0,3.0,59,0.00,,---,0.00,VWS V14.01,2013-04-28 04:33:00,
2013-04-28 00:34:00,52.8,38.9,30.26,SSW,209,0.0,3.0,59,0.00,,---,0.00,VWS V14.01,2013-04-28 04:34:00,
2013-04-28 00:36:00,52.7,38.8,30.26,SSW,201,0.0,3.0,59,0.00,,---,0.00,VWS V14.01,2013-04-28 04:36:00,
2013-04-28 00:38:00,52.7,38.8,30.26,SSW,200,0.0,3.0,59,0.00,,---,0.00,VWS V14.01,2013-04-28 04:38:00,
2013-04-28 00:39:00,52.7,38.8,30.26,SSW,200,0.0,3.0,59,0.00,,---,0.00,VWS V14.01,2013-04-28 04:39:00,
2013-04-28 00:40:00,52.8,38.9,30.26,West,273,1.0,3.0,59,0.00,,---,0.00,VWS V14.01,2013-04-28 04:40:00,
2013-04-28 00:42:00,52.8,38.9,30.26,West,274,0.0,3.0,59,0.00,,---,0.00,VWS V14.01,2013-04-28 04:42:00,
2013-04-28 00:44:00,52.8,38.9,30.26,West,274,0.0,3.0,59,0.00,,---,0.00,VWS V14.01,2013-04-28 04:44:00,
2013-04-28 00:45:00,52.8,38.5,30.26,West,274,0.0,3.0,58,0.00,,---,0.00,VWS V14.01,2013-04-28 04:45:00,
2013-04-28 00:47:00,52.8,38.9,30.26,WSW,245,2.0,3.0,59,0.00,,---,0.00,VWS V14.01,2013-04-28 04:47:00,
2013-04-28 00:49:00,52.8,38.9,30.26,WSW,240,0.0,3.0,59,0.00,,---,0.00,VWS V14.01,2013-04-28 04:49:00,
2013-04-28 00:50:00,52.8,39.7,30.26,WSW,240,0.0,3.0,61,0.00,,---,0.00,VWS V14.01,2013-04-28 04:50:00,
2013-04-28 00:53:00,52.8,38.5,30.26,WSW,240,0.0,3.0,58,0.00,,---,0.00,VWS V14.01,2013-04-28 04:53:00,
2013-04-28 00:54:00,52.8,38.5,30.26,WSW,240,0.0,3.0,58,0.00,,---,0.00,VWS V14.01,2013-04-28 04:54:00,
2013-04-28 00:55:00,52.9,38.5,30.26,NW,319,0.0,3.0,58,0.00,,---,0.00,VWS V14.01,2013-04-28 04:55:00,
2013-04-28 00:56:00,52.9,38.5,30.26,NW,318,0.0,3.0,58,0.00,,---,0.00,VWS V14.01,2013-04-28 04:56:00,
2013-04-28 00:58:00,53.0,38.6,30.26,NW,318,0.0,3.0,58,0.00,,---,0.00,VWS V14.01,2013-04-28 04:58:00,
2013-04-28 00:59:00,53.0,38.6,30.26,NW,319,0.0,3.0,58,0.00,,---,0.00,VWS V14.01,2013-04-28 04:59:00,
2013-04-28 01:00:00,53.0,38.6,30.26,NW,318,0.0,3.0,58,0.00,,---,0.00,VWS V14.01,2013-04-28 05:00:00,
2013-04-28 01:01:00,52.9,38.5,30.26,NW,318,0.0,3.0,58,0.00,,---,0.00,VWS V14.01,2013-04-28 05:01:00,
2013-04-28 01:02:00,52.8,38.5,30.26,NW,319,0.0,3.0,58,0.00,,---,0.00,VWS V14.01,2013-04-28 05:02:00,
2013-04-28 01:04:00,52.8,38.9,30.26,NW,315,0.0,3.0,59,0.00,,---,0.00,VWS V14.01,2013-04-28 05:04:00,
2013-04-28 01:05:00,52.8,38.5,30.25,NW,314,0.0,0.0,58,0.00,,---,0.00,VWS V14.01,2013-04-28 05:05:00,
2013-04-28 01:06:00,52.8,38.5,30.26,NW,314,0.0,0.0,58,0.00,,---,0.00,VWS V14.01,2013-04-28 05:06:00,
2013-04-28 01:07:00,52.7,38.3,30.25,SSW,207,0.0,4.0,58,0.00,,---,0.00,VWS V14.01,2013-04-28 05:07:00,
2013-04-28 01:09:00,52.7,38.8,30.25,SSW,208,0.0,4.0,59,0.00,,---,0.00,VWS V14.01,2013-04-28 05:09:00,
2013-04-28 01:10:00,52.7,38.8,30.25,SSW,208,0.0,4.0,59,0.00,,---,0.00,VWS V14.01,2013-04-28 05:10:00,
2013-04-28 01:11:00,52.6,38.7,30.25,SSW,207,0.0,4.0,59,0.00,,---,0.00,VWS V14.01,2013-04-28 05:11:00,
2013-04-28 01:12:00,52.6,38.7,30.25,SSW,208,0.0,4.0,59,0.00,,---,0.00,VWS V14.01,2013-04-28 05:12:00,
2013-04-28 01:13:00,52.6,38.7,30.26,SSW,206,0.0,4.0,59,0.00,,---,0.00,VWS V14.01,2013-04-28 05:13:00,
2013-04-28 01:15:00,52.6,38.7,30.26,SSW,206,0.0,4.0,59,0.00,,---,0.00,VWS V14.01,2013-04-28 05:15:00,
2013-04-28 01:16:00,52.6,38.7,30.26,SSW,207,0.0,4.0,59,0.00,,---,0.00,VWS V14.01,2013-04-28 05:16:00,
2013-04-28 01:17:00,52.6,38.7,30.26,SSW,206,0.0,4.0,59,0.00,,---,0.00,VWS V14.01,2013-04-28 05:17:00,
2013-04-28 01:18:00,52.7,38.8,30.26,SSW,207,0.0,4.0,59,0.00,,---,0.00,VWS V14.01,2013-04-28 05:18:00,
2013-04-28 01:20:00,52.8,38.9,30.26,SSW,207,0.0,4.0,59,0.00,,---,0.00,VWS V14.01,2013-04-28 05:20:00,
2013-04-28 01:21:00,52.8,38.9,30.26,SSW,207,0.0,4.0,59,0.00,,---,0.00,VWS V14.01,2013-04-28 05:21:00,
2013-04-28 01:22:00,52.8,38.9,30.26,SSW,206,0.0,4.0,59,0.00,,---,0.00,VWS V14.01,2013-04-28 05:22:00,
2013-04-28 01:23:00,52.9,39.8,30.26,SSW,207,0.0,4.0,61,0.00,,---,0.00,VWS V14.01,2013-04-28 05:23:00,
2013-04-28 01:25:00,52.9,39.0,30.26,SSW,207,0.0,4.0,59,0.00,,---,0.00,VWS V14.01,2013-04-28 05:25:00,
2013-04-28 01:27:00,52.9,39.0,30.25,SSW,207,0.0,4.0,59,0.00,,---,0.00,VWS V14.01,2013-04-28 05:27:00,
2013-04-28 01:28:00,52.8,38.9,30.26,SSW,207,0.0,4.0,59,0.00,,---,0.00,VWS V14.01,2013-04-28 05:28:00,
2013-04-28 01:29:00,52.8,38.9,30.26,SSW,206,0.0,4.0,59,0.00,,---,0.00,VWS V14.01,2013-04-28 05:29:00,
2013-04-28 01:31:00,52.6,38.7,30.25,SSW,207,2.0,4.0,59,0.00,,---,0.00,VWS V14.01,2013-04-28 05:31:00,
2013-04-28 01:32:00,52.6,38.7,30.25,SSW,206,0.0,4.0,59,0.00,,---,0.00,VWS V14.01,2013-04-28 05:32:00,
2013-04-28 01:33:00,52.6,38.7,30.25,SSW,207,0.0,4.0,59,0.00,,---,0.00,VWS V14.01,2013-04-28 05:33:00,
2013-04-28 01:34:00,52.7,38.8,30.25,SSW,207,0.0,4.0,59,0.00,,---,0.00,VWS V14.01,2013-04-28 05:34:00,
2013-04-28 01:37:00,52.7,38.8,30.25,SSW,206,0.0,0.0,59,0.00,,---,0.00,VWS V14.01,2013-04-28 05:37:00,
2013-04-28 01:38:00,52.7,38.8,30.25,SSW,207,0.0,0.0,59,0.00,,---,0.00,VWS V14.01,2013-04-28 05:38:00,
2013-04-28 01:39:00,52.7,38.8,30.25,SSW,207,0.0,0.0,59,0.00,,---,0.00,VWS V14.01,2013-04-28 05:39:00,
2013-04-28 01:42:00,52.7,38.8,30.25,SSW,206,0.0,0.0,59,0.00,,---,0.00,VWS V14.01,2013-04-28 05:42:00,
2013-04-28 01:43:00,52.7,38.8,30.25,SSW,206,0.0,0.0,59,0.00,,---,0.00,VWS V14.01,2013-04-28 05:43:00,
2013-04-28 01:44:00,52.7,38.8,30.25,SSW,207,0.0,0.0,59,0.00,,---,0.00,VWS V14.01,2013-04-28 05:44:00,
2013-04-28 01:48:00,52.6,38.7,30.25,SSW,207,0.0,1.0,59,0.00,,---,0.00,VWS V14.01,2013-04-28 05:48:00,
2013-04-28 01:49:00,52.6,38.7,30.25,SSW,207,0.0,1.0,59,0.00,,---,0.00,VWS V14.01,2013-04-28 05:49:00,
2013-04-28 01:50:00,52.6,38.7,30.25,SSW,207,0.0,2.0,59,0.00,,---,0.00,VWS V14.01,2013-04-28 05:50:00,
2013-04-28 01:53:00,52.7,38.8,30.25,East,86,0.0,2.0,59,0.00,,---,0.00,VWS V14.01,2013-04-28 05:53:00,
2013-04-28 01:54:00,52.6,38.7,30.25,East,86,0.0,2.0,59,0.00,,---,0.00,VWS V14.01,2013-04-28 05:54:00,
2013-04-28 01:55:00,52.6,38.7,30.25,East,86,0.0,2.0,59,0.00,,---,0.00,VWS V14.01,2013-04-28 05:55:00,
2013-04-28 01:58:00,52.3,38.8,30.25,East,86,0.0,2.0,60,0.00,,---,0.00,VWS V14.01,2013-04-28 05:58:00,
2013-04-28 01:59:00,52.3,38.4,30.25,East,86,0.0,2.0,59,0.00,,---,0.00,VWS V14.01,2013-04-28 05:59:00,
2013-04-28 02:00:00,52.3,38.4,30.25,East,86,0.0,2.0,59,0.00,,---,0.00,VWS V14.01,2013-04-28 06:00:00,
2013-04-28 02:01:00,52.3,38.8,30.25,East,86,0.0,2.0,60,0.00,,---,0.00,VWS V14.01,2013-04-28 06:01:00,
2013-04-28 02:04:00,52.2,38.8,30.26,East,84,0.0,2.0,60,0.00,,---,0.00,VWS V14.01,2013-04-28 06:04:00,
2013-04-28 02:05:00,52.1,38.7,30.26,East,84,0.0,0.0,60,0.00,,---,0.00,VWS V14.01,2013-04-28 06:05:00,
2013-04-28 02:06:00,52.0,38.6,30.25,East,84,0.0,0.0,60,0.00,,---,0.00,VWS V14.01,2013-04-28 06:06:00,
2013-04-28 02:07:00,51.9,38.5,30.25,East,84,0.0,0.0,60,0.00,,---,0.00,VWS V14.01,2013-04-28 06:07:00,
2013-04-28 02:09:00,51.8,38.8,30.26,East,84,1.0,1.0,61,0.00,,---,0.00,VWS V14.01,2013-04-28 06:09:00,
2013-04-28 02:10:00,51.8,38.8,30.26,East,84,0.0,1.0,61,0.00,,---,0.00,VWS V14.01,2013-04-28 06:10:00,
2013-04-28 02:11:00,51.8,38.8,30.26,East,83,0.0,1.0,61,0.00,,---,0.00,VWS V14.01,2013-04-28 06:11:00,
2013-04-28 02:12:00,51.7,38.7,30.26,East,84,0.0,1.0,61,0.00,,---,0.00,VWS V14.01,2013-04-28 06:12:00,
2013-04-28 02:14:00,51.7,38.7,30.25,East,84,0.0,1.0,61,0.00,,---,0.00,VWS V14.01,2013-04-28 06:14:00,
2013-04-28 02:15:00,51.7,38.7,30.25,East,84,1.0,1.0,61,0.00,,---,0.00,VWS V14.01,2013-04-28 06:15:00,
2013-04-28 02:16:00,51.6,38.6,30.25,East,83,0.0,1.0,61,0.00,,---,0.00,VWS V14.01,2013-04-28 06:16:00,
2013-04-28 02:18:00,51.6,38.6,30.25,East,86,0.0,2.0,61,0.00,,---,0.00,VWS V14.01,2013-04-28 06:18:00,
2013-04-28 02:19:00,51.7,38.7,30.25,East,86,0.0,2.0,61,0.00,,---,0.00,VWS V14.01,2013-04-28 06:19:00,
2013-04-28 02:20:00,51.7,38.7,30.25,East,86,0.0,2.0,61,0.00,,---,0.00,VWS V14.01,2013-04-28 06:20:00,
2013-04-28 02:21:00,51.7,38.7,30.25,East,86,0.0,2.0,61,0.00,,---,0.00,VWS V14.01,2013-04-28 06:21:00,
2013-04-28 02:23:00,51.8,38.8,30.25,East,86,0.0,2.0,61,0.00,,---,0.00,VWS V14.01,2013-04-28 06:23:00,
2013-04-28 02:24:00,51.8,38.8,30.25,East,86,0.0,2.0,61,0.00,,---,0.00,VWS V14.01,2013-04-28 06:24:00,
2013-04-28 02:26:00,51.8,38.8,30.25,East,86,0.0,2.0,61,0.00,,---,0.00,VWS V14.01,2013-04-28 06:26:00,
2013-04-28 02:27:00,51.8,38.8,30.25,East,86,0.0,2.0,61,0.00,,---,0.00,VWS V14.01,2013-04-28 06:27:00,
2013-04-28 02:28:00,51.8,38.8,30.25,East,87,2.0,2.0,61,0.00,,---,0.00,VWS V14.01,2013-04-28 06:28:00,
2013-04-28 02:30:00,51.8,38.8,30.25,East,87,0.0,2.0,61,0.00,,---,0.00,VWS V14.01,2013-04-28 06:30:00,
2013-04-28 02:31:00,51.9,38.9,30.25,East,87,1.0,2.0,61,0.00,,---,0.00,VWS V14.01,2013-04-28 06:31:00,
2013-04-28 02:32:00,51.9,38.5,30.25,East,87,0.0,2.0,60,0.00,,---,0.00,VWS V14.01,2013-04-28 06:32:00,
2013-04-28 02:33:00,51.9,38.5,30.25,East,87,0.0,2.0,60,0.00,,---,0.00,VWS V14.01,2013-04-28 06:33:00,
2013-04-28 02:35:00,51.9,38.9,30.25,East,87,0.0,0.0,61,0.00,,---,0.00,VWS V14.01,2013-04-28 06:35:00,
2013-04-28 02:37:00,51.8,38.8,30.25,East,87,0.0,0.0,61,0.00,,---,0.00,VWS V14.01,2013-04-28 06:37:00,
2013-04-28 02:38:00,51.7,38.7,30.25,East,87,0.0,0.0,61,0.00,,---,0.00,VWS V14.01,2013-04-28 06:38:00,
2013-04-28 02:39:00,51.7,38.7,30.24,East,87,0.0,0.0,61,0.00,,---,0.00,VWS V14.01,2013-04-28 06:39:00,
2013-04-28 02:40:00,51.6,38.6,30.25,East,87,0.0,0.0,61,0.00,,---,0.00,VWS V14.01,2013-04-28 06:40:00,
2013-04-28 02:42:00,51.5,38.5,30.24,East,87,0.0,0.0,61,0.00,,---,0.00,VWS V14.01,2013-04-28 06:42:00,
2013-04-28 02:44:00,51.5,38.5,30.24,East,87,0.0,0.0,61,0.00,,---,0.00,VWS V14.01,2013-04-28 06:44:00,
2013-04-28 02:45:00,51.5,38.5,30.24,East,87,0.0,0.0,61,0.00,,---,0.00,VWS V14.01,2013-04-28 06:45:00,
2013-04-28 02:48:00,51.5,38.5,30.24,East,87,0.0,0.0,61,0.00,,---,0.00,VWS V14.01,2013-04-28 06:48:00,
2013-04-28 02:49:00,51.5,38.5,30.24,East,87,0.0,0.0,61,0.00,,---,0.00,VWS V14.01,2013-04-28 06:49:00,
2013-04-28 02:50:00,51.4,38.4,30.24,East,87,0.0,1.0,61,0.00,,---,0.00,VWS V14.01,2013-04-28 06:50:00,
2013-04-28 02:51:00,51.4,38.4,30.24,East,87,0.0,1.0,61,0.00,,---,0.00,VWS V14.01,2013-04-28 06:51:00,
2013-04-28 02:53:00,51.4,38.4,30.23,East,87,0.0,1.0,61,0.00,,---,0.00,VWS V14.01,2013-04-28 06:53:00,
2013-04-28 02:54:00,51.5,38.5,30.23,ESE,116,2.0,3.0,61,0.00,,---,0.00,VWS V14.01,2013-04-28 06:54:00,
2013-04-28 02:55:00,51.6,38.6,30.23,ESE,116,0.0,3.0,61,0.00,,---,0.00,VWS V14.01,2013-04-28 06:55:00,
2013-04-28 02:56:00,51.8,38.4,30.23,ESE,115,0.0,3.0,60,0.00,,---,0.00,VWS V14.01,2013-04-28 06:56:00,
2013-04-28 02:58:00,51.9,38.5,30.23,ESE,115,0.0,3.0,60,0.00,,---,0.00,VWS V14.01,2013-04-28 06:58:00,
2013-04-28 02:59:00,52.0,38.6,30.23,ESE,116,0.0,3.0,60,0.00,,---,0.00,VWS V14.01,2013-04-28 06:59:00,
2013-04-28 03:00:00,52.0,38.6,30.23,ESE,117,2.0,3.0,60,0.00,,---,0.00,VWS V14.01,2013-04-28 07:00:00,
2013-04-28 03:01:00,52.1,38.7,30.23,ESE,117,0.0,3.0,60,0.00,,---,0.00,VWS V14.01,2013-04-28 07:01:00,
2013-04-28 03:04:00,52.1,38.7,30.23,ESE,117,0.0,3.0,60,0.00,,---,0.00,VWS V14.01,2013-04-28 07:04:00,
2013-04-28 03:05:00,52.1,38.7,30.23,ESE,117,0.0,0.0,60,0.00,,---,0.00,VWS V14.01,2013-04-28 07:05:00,
2013-04-28 03:07:00,52.1,38.7,30.23,ESE,117,0.0,0.0,60,0.00,,---,0.00,VWS V14.01,2013-04-28 07:07:00,
2013-04-28 03:09:00,52.0,38.6,30.23,ESE,117,0.0,1.0,60,0.00,,---,0.00,VWS V14.01,2013-04-28 07:09:00,
2013-04-28 03:10:00,51.9,38.9,30.23,ESE,117,0.0,1.0,61,0.00,,---,0.00,VWS V14.01,2013-04-28 07:10:00,
2013-04-28 03:11:00,51.9,38.9,30.23,ESE,117,0.0,1.0,61,0.00,,---,0.00,VWS V14.01,2013-04-28 07:11:00,
2013-04-28 03:12:00,51.8,38.8,30.23,ESE,117,0.0,1.0,61,0.00,,---,0.00,VWS V14.01,2013-04-28 07:12:00,
2013-04-28 03:14:00,51.6,38.6,30.23,ESE,117,0.0,1.0,61,0.00,,---,0.00,VWS V14.01,2013-04-28 07:14:00,
2013-04-28 03:15:00,51.6,38.6,30.23,ESE,117,0.0,1.0,61,0.00,,---,0.00,VWS V14.01,2013-04-28 07:15:00,
2013-04-28 03:17:00,51.5,38.5,30.23,ESE,121,0.0,3.0,61,0.00,,---,0.00,VWS V14.01,2013-04-28 07:17:00,
2013-04-28 03:20:00,51.5,38.9,30.23,ESE,121,0.0,3.0,62,0.00,,---,0.00,VWS V14.01,2013-04-28 07:20:00,
2013-04-28 03:22:00,51.4,38.8,30.23,ESE,121,0.0,3.0,62,0.00,,---,0.00,VWS V14.01,2013-04-28 07:22:00,
2013-04-28 03:25:00,51.2,38.6,30.23,ESE,121,0.0,3.0,62,0.00,,---,0.00,VWS V14.01,2013-04-28 07:25:00,
2013-04-28 03:26:00,51.2,38.6,30.23,ESE,121,0.0,3.0,62,0.00,,---,0.00,VWS V14.01,2013-04-28 07:26:00,
2013-04-28 03:27:00,51.1,38.5,30.23,ESE,121,0.0,3.0,62,0.00,,---,0.00,VWS V14.01,2013-04-28 07:27:00,
2013-04-28 03:28:00,51.1,39.0,30.23,ESE,121,0.0,3.0,63,0.00,,---,0.00,VWS V14.01,2013-04-28 07:28:00,
2013-04-28 03:30:00,51.0,38.9,30.23,ESE,121,0.0,3.0,63,0.00,,---,0.00,VWS V14.01,2013-04-28 07:30:00,
2013-04-28 03:31:00,51.0,38.9,30.23,ESE,121,0.0,3.0,63,0.00,,---,0.00,VWS V14.01,2013-04-28 07:31:00,
2013-04-28 03:32:00,50.9,38.8,30.23,ESE,121,0.0,3.0,63,0.00,,---,0.00,VWS V14.01,2013-04-28 07:32:00,
2013-04-28 03:33:00,50.9,38.8,30.23,ESE,121,1.0,3.0,63,0.00,,---,0.00,VWS V14.01,2013-04-28 07:33:00,
2013-04-28 03:35:00,50.9,38.8,30.23,ESE,121,0.0,0.0,63,0.00,,---,0.00,VWS V14.01,2013-04-28 07:35:00,
2013-04-28 03:36:00,51.0,38.9,30.23,ESE,121,0.0,0.0,63,0.00,,---,0.00,VWS V14.01,2013-04-28 07:36:00,
2013-04-28 03:37:00,51.0,38.9,30.23,ESE,121,0.0,1.0,63,0.00,,---,0.00,VWS V14.01,2013-04-28 07:37:00,
2013-04-28 03:38:00,51.1,38.5,30.23,ESE,121,0.0,1.0,62,0.00,,---,0.00,VWS V14.01,2013-04-28 07:38:00,
2013-04-28 03:41:00,51.3,38.7,30.23,ESE,121,0.0,1.0,62,0.00,,---,0.00,VWS V14.01,2013-04-28 07:41:00,
2013-04-28 03:42:00,51.3,38.7,30.23,ESE,121,0.0,1.0,62,0.00,,---,0.00,VWS V14.01,2013-04-28 07:42:00,
2013-04-28 03:43:00,51.4,38.8,30.23,ESE,121,3.0,3.0,62,0.00,,---,0.00,VWS V14.01,2013-04-28 07:43:00,
2013-04-28 03:44:00,51.4,38.8,30.23,ESE,121,0.0,3.0,62,0.00,,---,0.00,VWS V14.01,2013-04-28 07:44:00,
2013-04-28 03:46:00,51.5,38.9,30.22,ESE,121,0.0,3.0,62,0.00,,---,0.00,VWS V14.01,2013-04-28 07:46:00,
2013-04-28 03:47:00,51.5,38.9,30.22,ESE,121,0.0,3.0,62,0.00,,---,0.00,VWS V14.01,2013-04-28 07:47:00,
2013-04-28 03:49:00,51.5,38.5,30.22,ESE,121,0.0,3.0,61,0.00,,---,0.00,VWS V14.01,2013-04-28 07:49:00,
2013-04-28 03:51:00,51.5,38.5,30.23,ESE,121,0.0,3.0,61,0.00,,---,0.00,VWS V14.01,2013-04-28 07:51:00,
2013-04-28 03:52:00,51.5,38.5,30.22,ESE,121,0.0,3.0,61,0.00,,---,0.00,VWS V14.01,2013-04-28 07:52:00,
2013-04-28 03:54:00,51.5,38.5,30.23,SSE,149,0.0,4.0,61,0.00,,---,0.00,VWS V14.01,2013-04-28 07:54:00,
2013-04-28 03:56:00,51.6,38.6,30.23,SSE,149,0.0,4.0,61,0.00,,---,0.00,VWS V14.01,2013-04-28 07:56:00,
2013-04-28 03:58:00,51.6,38.6,30.22,SSE,149,0.0,4.0,61,0.00,,---,0.00,VWS V14.01,2013-04-28 07:58:00,
2013-04-28 03:59:00,51.6,38.6,30.23,SSE,149,0.0,4.0,61,0.00,,---,0.00,VWS V14.01,2013-04-28 07:59:00,
2013-04-28 04:00:00,51.6,38.6,30.23,SSE,150,0.0,4.0,61,0.00,,---,0.00,VWS V14.01,2013-04-28 08:00:00,
2013-04-28 04:02:00,51.5,38.5,30.22,SSE,149,0.0,4.0,61,0.00,,---,0.00,VWS V14.01,2013-04-28 08:02:00,
2013-04-28 04:03:00,51.4,38.4,30.22,SSE,150,0.0,4.0,61,0.00,,---,0.00,VWS V14.01,2013-04-28 08:03:00,
2013-04-28 04:05:00,51.4,38.4,30.22,SSE,155,3.0,3.0,61,0.00,,---,0.00,VWS V14.01,2013-04-28 08:05:00,
2013-04-28 04:07:00,51.4,38.4,30.22,South,171,0.0,4.0,61,0.00,,---,0.00,VWS V14.01,2013-04-28 08:07:00,
2013-04-28 04:08:00,51.4,38.4,30.22,South,171,0.0,4.0,61,0.00,,---,0.00,VWS V14.01,2013-04-28 08:08:00,
2013-04-28 04:10:00,51.5,38.5,30.22,South,171,0.0,4.0,61,0.00,,---,0.00,VWS V14.01,2013-04-28 08:10:00,
2013-04-28 04:12:00,51.5,38.5,30.22,South,171,0.0,4.0,61,0.00,,---,0.00,VWS V14.01,2013-04-28 08:12:00,
2013-04-28 04:13:00,51.5,38.5,30.22,South,171,0.0,4.0,61,0.00,,---,0.00,VWS V14.01,2013-04-28 08:13:00,
2013-04-28 04:14:00,51.5,38.5,30.22,South,171,0.0,4.0,61,0.00,,---,0.00,VWS V14.01,2013-04-28 08:14:00,
2013-04-28 04:16:00,51.4,38.4,30.22,South,171,0.0,4.0,61,0.00,,---,0.00,VWS V14.01,2013-04-28 08:16:00,
2013-04-28 04:17:00,51.5,38.5,30.22,South,171,0.0,4.0,61,0.00,,---,0.00,VWS V14.01,2013-04-28 08:17:00,
2013-04-28 04:18:00,51.4,38.4,30.22,South,171,0.0,4.0,61,0.00,,---,0.00,VWS V14.01,2013-04-28 08:18:00,
2013-04-28 04:19:00,51.5,38.5,30.22,South,171,0.0,4.0,61,0.00,,---,0.00,VWS V14.01,2013-04-28 08:19:00,
2013-04-28 04:21:00,51.5,38.5,30.22,South,172,0.0,4.0,61,0.00,,---,0.00,VWS V14.01,2013-04-28 08:21:00,
2013-04-28 04:22:00,51.5,38.5,30.22,South,172,0.0,4.0,61,0.00,,---,0.00,VWS V14.01,2013-04-28 08:22:00,
2013-04-28 04:23:00,51.4,38.4,30.22,South,172,0.0,4.0,61,0.00,,---,0.00,VWS V14.01,2013-04-28 08:23:00,
2013-04-28 04:24:00,51.4,38.4,30.22,South,188,4.0,5.0,61,0.00,,---,0.00,VWS V14.01,2013-04-28 08:24:00,
2013-04-28 04:27:00,51.4,38.8,30.22,South,190,0.0,5.0,62,0.00,,---,0.00,VWS V14.01,2013-04-28 08:27:00,
2013-04-28 04:28:00,51.4,38.8,30.22,South,190,0.0,5.0,62,0.00,,---,0.00,VWS V14.01,2013-04-28 08:28:00,
2013-04-28 04:29:00,51.4,38.4,30.22,South,190,0.0,5.0,61,0.00,,---,0.00,VWS V14.01,2013-04-28 08:29:00,
2013-04-28 04:32:00,51.4,38.8,30.22,South,186,0.0,5.0,62,0.00,,---,0.00,VWS V14.01,2013-04-28 08:32:00,
2013-04-28 04:33:00,51.4,38.8,30.22,South,186,0.0,5.0,62,0.00,,---,0.00,VWS V14.01,2013-04-28 08:33:00,
2013-04-28 04:34:00,51.4,38.8,30.22,South,186,0.0,5.0,62,0.00,,---,0.00,VWS V14.01,2013-04-28 08:34:00,
2013-04-28 04:35:00,51.4,38.4,30.22,South,186,0.0,0.0,61,0.00,,---,0.00,VWS V14.01,2013-04-28 08:35:00,
2013-04-28 04:37:00,51.4,38.4,30.22,South,187,1.0,2.0,61,0.00,,---,0.00,VWS V14.01,2013-04-28 08:37:00,
2013-04-28 04:39:00,51.4,38.8,30.22,South,187,0.0,2.0,62,0.00,,---,0.00,VWS V14.01,2013-04-28 08:39:00,
2013-04-28 04:40:00,51.3,38.7,30.22,South,187,0.0,2.0,62,0.00,,---,0.00,VWS V14.01,2013-04-28 08:40:00,
2013-04-28 04:43:00,51.2,38.6,30.22,South,187,0.0,2.0,62,0.00,,---,0.00,VWS V14.01,2013-04-28 08:43:00,
2013-04-28 04:44:00,51.2,38.6,30.22,South,187,0.0,2.0,62,0.00,,---,0.00,VWS V14.01,2013-04-28 08:44:00,
2013-04-28 04:45:00,51.2,38.6,30.22,South,187,0.0,2.0,62,0.00,,---,0.00,VWS V14.01,2013-04-28 08:45:00,
2013-04-28 04:47:00,51.3,38.7,30.22,South,187,0.0,2.0,62,0.00,,---,0.00,VWS V14.01,2013-04-28 08:47:00,
2013-04-28 04:48:00,51.2,38.6,30.22,South,187,0.0,2.0,62,0.00,,---,0.00,VWS V14.01,2013-04-28 08:48:00,
2013-04-28 04:49:00,51.2,38.6,30.22,South,187,0.0,2.0,62,0.00,,---,0.00,VWS V14.01,2013-04-28 08:49:00,
2013-04-28 04:50:00,51.2,38.6,30.22,South,187,0.0,2.0,62,0.00,,---,0.00,VWS V14.01,2013-04-28 08:50:00,
2013-04-28 04:52:00,51.1,38.5,30.22,South,187,0.0,2.0,62,0.00,,---,0.00,VWS V14.01,2013-04-28 08:52:00,
2013-04-28 04:53:00,51.2,38.6,30.22,South,187,0.0,2.0,62,0.00,,---,0.00,VWS V14.01,2013-04-28 08:53:00,
2013-04-28 04:54:00,51.2,38.6,30.22,South,187,0.0,2.0,62,0.00,,---,0.00,VWS V14.01,2013-04-28 08:54:00,
2013-04-28 04:55:00,51.2,38.6,30.22,South,187,0.0,2.0,62,0.00,,---,0.00,VWS V14.01,2013-04-28 08:55:00,
2013-04-28 04:57:00,51.1,38.5,30.22,South,187,0.0,3.0,62,0.00,,---,0.00,VWS V14.01,2013-04-28 08:57:00,
2013-04-28 04:59:00,51.0,38.5,30.22,South,187,0.0,3.0,62,0.00,,---,0.00,VWS V14.01,2013-04-28 08:59:00,
2013-04-28 05:00:00,51.1,38.5,30.22,South,187,0.0,3.0,62,0.00,,---,0.00,VWS V14.01,2013-04-28 09:00:00,
2013-04-28 05:02:00,51.0,38.9,30.22,South,187,0.0,3.0,63,0.00,,---,0.00,VWS V14.01,2013-04-28 09:02:00,
2013-04-28 05:04:00,51.0,38.5,30.22,South,187,0.0,0.0,62,0.00,,---,0.00,VWS V14.01,2013-04-28 09:04:00,
2013-04-28 05:05:00,51.0,38.5,30.22,South,187,0.0,0.0,62,0.00,,---,0.00,VWS V14.01,2013-04-28 09:05:00,
2013-04-28 05:06:00,51.0,38.5,30.22,South,187,0.0,0.0,62,0.00,,---,0.00,VWS V14.01,2013-04-28 09:06:00,
2013-04-28 05:07:00,51.0,38.9,30.22,South,187,0.0,1.0,63,0.00,,---,0.00,VWS V14.01,2013-04-28 09:07:00,
2013-04-28 05:10:00,50.9,38.8,30.22,South,187,0.0,1.0,63,0.00,,---,0.00,VWS V14.01,2013-04-28 09:10:00,
2013-04-28 05:11:00,50.9,38.8,30.22,South,187,0.0,1.0,63,0.00,,---,0.00,VWS V14.01,2013-04-28 09:11:00,
2013-04-28 05:12:00,50.8,38.7,30.22,South,187,0.0,1.0,63,0.00,,---,0.00,VWS V14.01,2013-04-28 09:12:00,
2013-04-28 05:15:00,50.7,38.6,30.22,South,187,0.0,1.0,63,0.00,,---,0.00,VWS V14.01,2013-04-28 09:15:00,
2013-04-28 05:16:00,50.7,38.6,30.22,South,187,0.0,1.0,63,0.00,,---,0.00,VWS V14.01,2013-04-28 09:16:00,
2013-04-28 05:17:00,50.8,38.7,30.22,South,187,0.0,1.0,63,0.00,,---,0.00,VWS V14.01,2013-04-28 09:17:00,
2013-04-28 05:18:00,50.8,38.7,30.22,South,187,0.0,1.0,63,0.00,,---,0.00,VWS V14.01,2013-04-28 09:18:00,
2013-04-28 05:21:00,50.6,38.5,30.22,South,187,0.0,1.0,63,0.00,,---,0.00,VWS V14.01,2013-04-28 09:21:00,
2013-04-28 05:22:00,50.6,38.5,30.22,South,187,0.0,1.0,63,0.00,,---,0.00,VWS V14.01,2013-04-28 09:22:00,
2013-04-28 05:23:00,50.6,38.9,30.22,South,187,0.0,1.0,64,0.00,,---,0.00,VWS V14.01,2013-04-28 09:23:00,
2013-04-28 05:26:00,50.5,38.4,30.22,SSW,194,0.0,1.0,63,0.00,,---,0.00,VWS V14.01,2013-04-28 09:26:00,
2013-04-28 05:27:00,50.5,38.4,30.21,SSW,194,0.0,1.0,63,0.00,,---,0.00,VWS V14.01,2013-04-28 09:27:00,
2013-04-28 05:28:00,50.4,38.3,30.21,SSW,194,0.0,1.0,63,0.00,,---,0.00,VWS V14.01,2013-04-28 09:28:00,
2013-04-28 05:31:00,50.3,38.6,30.21,SSW,194,0.0,1.0,64,0.00,,---,0.00,VWS V14.01,2013-04-28 09:31:00,
2013-04-28 05:32:00,50.2,38.5,30.21,SSW,194,0.0,1.0,64,0.00,,---,0.00,VWS V14.01,2013-04-28 09:32:00,
2013-04-28 05:34:00,50.0,38.3,30.21,SSW,194,0.0,1.0,64,0.00,,---,0.00,VWS V14.01,2013-04-28 09:34:00,
2013-04-28 05:36:00,49.8,38.1,30.21,SSW,194,0.0,0.0,64,0.00,,---,0.00,VWS V14.01,2013-04-28 09:36:00,
2013-04-28 05:37:00,49.8,38.1,30.21,SSW,194,0.0,0.0,64,0.00,,---,0.00,VWS V14.01,2013-04-28 09:37:00,
2013-04-28 05:38:00,49.7,38.0,30.21,SSW,194,0.0,0.0,64,0.00,,---,0.00,VWS V14.01,2013-04-28 09:38:00,
2013-04-28 05:39:00,49.7,38.0,30.21,SSW,195,0.0,0.0,64,0.00,,---,0.00,VWS V14.01,2013-04-28 09:39:00,
2013-04-28 05:41:00,49.7,38.0,30.21,SSW,195,0.0,0.0,64,0.00,,---,0.00,VWS V14.01,2013-04-28 09:41:00,
2013-04-28 05:42:00,49.8,38.1,30.21,SSW,195,1.0,1.0,64,0.00,,---,0.00,VWS V14.01,2013-04-28 09:42:00,
2013-04-28 05:43:00,49.9,37.8,30.21,SSW,195,0.0,3.0,63,0.00,,---,0.00,VWS V14.01,2013-04-28 09:43:00,
2013-04-28 05:44:00,50.0,37.9,30.21,SSW,195,0.0,3.0,63,0.00,,---,0.00,VWS V14.01,2013-04-28 09:44:00,
2013-04-28 05:47:00,50.3,38.2,30.21,SSW,195,0.0,3.0,63,0.00,,---,0.00,VWS V14.01,2013-04-28 09:47:00,
2013-04-28 05:48:00,50.3,37.8,30.22,SSW,195,0.0,3.0,62,0.00,,---,0.00,VWS V14.01,2013-04-28 09:48:00,
2013-04-28 05:50:00,50.3,37.8,30.22,SSW,195,0.0,3.0,62,0.00,,---,0.00,VWS V14.01,2013-04-28 09:50:00,
2013-04-28 05:52:00,50.1,38.0,30.22,SSW,195,0.0,3.0,63,0.00,,---,0.00,VWS V14.01,2013-04-28 09:52:00,
2013-04-28 05:53:00,50.0,37.9,30.22,SSW,195,0.0,3.0,63,0.00,,---,0.00,VWS V14.01,2013-04-28 09:53:00,
2013-04-28 05:55:00,50.0,37.5,30.22,SSW,195,0.0,3.0,62,0.00,,---,0.00,VWS V14.01,2013-04-28 09:55:00,
2013-04-28 05:56:00,50.0,37.5,30.22,SSW,195,0.0,3.0,62,0.00,,---,0.00,VWS V14.01,2013-04-28 09:56:00,
2013-04-28 05:57:00,50.0,37.5,30.22,SSW,195,0.0,3.0,62,0.00,,---,0.00,VWS V14.01,2013-04-28 09:57:00,
2013-04-28 05:58:00,50.0,37.5,30.22,SSW,195,0.0,3.0,62,0.00,,---,0.00,VWS V14.01,2013-04-28 09:58:00,
2013-04-28 05:59:00,50.0,37.5,30.22,SSW,195,0.0,3.0,62,0.00,,---,0.00,VWS V14.01,2013-04-28 09:59:00,
2013-04-28 06:01:00,50.1,37.6,30.22,SSW,195,0.0,3.0,62,0.00,,---,0.00,VWS V14.01,2013-04-28 10:01:00,
2013-04-28 06:03:00,50.1,37.6,30.22,SSW,195,0.0,3.0,62,0.00,,---,0.00,VWS V14.01,2013-04-28 10:03:00,
2013-04-28 06:04:00,50.1,37.6,30.22,SSW,195,0.0,3.0,62,0.00,,---,0.00,VWS V14.01,2013-04-28 10:04:00,
2013-04-28 06:06:00,50.0,37.5,30.22,SSW,195,0.0,0.0,62,0.00,,---,0.00,VWS V14.01,2013-04-28 10:06:00,
2013-04-28 06:08:00,50.0,37.5,30.22,SSW,195,0.0,0.0,62,0.00,,---,0.00,VWS V14.01,2013-04-28 10:08:00,
2013-04-28 06:09:00,50.0,37.9,30.22,SSW,195,0.0,0.0,63,0.00,,---,0.00,VWS V14.01,2013-04-28 10:09:00,
2013-04-28 06:10:00,50.0,37.9,30.22,SSW,195,0.0,0.0,63,0.00,,---,0.00,VWS V14.01,2013-04-28 10:10:00,
2013-04-28 06:11:00,50.0,37.9,30.23,SSW,195,0.0,0.0,63,0.00,,---,0.00,VWS V14.01,2013-04-28 10:11:00,
2013-04-28 06:12:00,50.0,37.5,30.23,SSW,195,0.0,0.0,62,0.00,,---,0.00,VWS V14.01,2013-04-28 10:12:00,
2013-04-28 06:13:00,50.1,37.6,30.22,SSW,195,0.0,1.0,62,0.00,,---,0.00,VWS V14.01,2013-04-28 10:13:00,
2013-04-28 06:15:00,50.1,37.6,30.23,SSW,195,0.0,2.0,62,0.00,,---,0.00,VWS V14.01,2013-04-28 10:15:00,
2013-04-28 06:16:00,50.1,37.6,30.23,SSW,195,0.0,2.0,62,0.00,,---,0.00,VWS V14.01,2013-04-28 10:16:00,
2013-04-28 06:17:00,50.2,37.7,30.22,SSW,195,0.0,2.0,62,0.00,,---,0.00,VWS V14.01,2013-04-28 10:17:00,
2013-04-28 06:19:00,50.3,38.2,30.23,SSW,195,0.0,2.0,63,0.00,,---,0.00,VWS V14.01,2013-04-28 10:19:00,
2013-04-28 06:20:00,50.2,38.1,30.23,SSW,195,0.0,2.0,63,0.00,,---,0.00,VWS V14.01,2013-04-28 10:20:00,
2013-04-28 06:21:00,50.2,38.1,30.23,SSW,195,0.0,2.0,63,0.00,,---,0.00,VWS V14.01,2013-04-28 10:21:00,
2013-04-28 06:22:00,50.1,38.0,30.23,SSW,195,0.0,2.0,63,0.00,,---,0.00,VWS V14.01,2013-04-28 10:22:00,
2013-04-28 06:25:00,50.1,38.0,30.23,SSW,195,0.0,2.0,63,0.00,,---,0.00,VWS V14.01,2013-04-28 10:25:00,
2013-04-28 06:26:00,50.1,38.0,30.23,SSW,195,0.0,2.0,63,0.00,,---,0.00,VWS V14.01,2013-04-28 10:26:00,
2013-04-28 06:27:00,50.1,38.0,30.23,SSW,195,0.0,2.0,63,0.00,,---,0.00,VWS V14.01,2013-04-28 10:27:00,
2013-04-28 06:30:00,50.2,38.1,30.23,SSW,195,0.0,2.0,63,0.00,,---,0.00,VWS V14.01,2013-04-28 10:30:00,
2013-04-28 06:31:00,50.2,38.1,30.23,SSW,195,0.0,2.0,63,0.00,,---,0.00,VWS V14.01,2013-04-28 10:31:00,
2013-04-28 06:32:00,50.2,38.1,30.23,SSW,195,0.0,2.0,63,0.00,,---,0.00,VWS V14.01,2013-04-28 10:32:00,
2013-04-28 06:33:00,50.2,38.1,30.23,SSW,195,0.0,2.0,63,0.00,,---,0.00,VWS V14.01,2013-04-28 10:33:00,
2013-04-28 06:36:00,50.2,38.1,30.23,SSW,195,0.0,0.0,63,0.00,,---,0.00,VWS V14.01,2013-04-28 10:36:00,
2013-04-28 06:37:00,50.2,38.1,30.23,SSW,195,0.0,2.0,63,0.00,,---,0.00,VWS V14.01,2013-04-28 10:37:00,
2013-04-28 06:38:00,50.2,38.1,30.23,SSW,195,0.0,2.0,63,0.00,,---,0.00,VWS V14.01,2013-04-28 10:38:00,
2013-04-28 06:41:00,50.3,38.2,30.23,SSW,195,0.0,2.0,63,0.00,,---,0.00,VWS V14.01,2013-04-28 10:41:00,
2013-04-28 06:42:00,50.3,38.2,30.23,SSW,195,0.0,2.0,63,0.00,,---,0.00,VWS V14.01,2013-04-28 10:42:00,
2013-04-28 06:43:00,50.3,38.2,30.23,SSW,195,0.0,2.0,63,0.00,,---,0.00,VWS V14.01,2013-04-28 10:43:00,
2013-04-28 06:46:00,50.4,38.3,30.24,SSW,195,0.0,3.0,63,0.00,,---,0.00,VWS V14.01,2013-04-28 10:46:00,
2013-04-28 06:47:00,50.5,38.4,30.24,SSW,195,0.0,3.0,63,0.00,,---,0.00,VWS V14.01,2013-04-28 10:47:00,
2013-04-28 06:48:00,50.5,38.4,30.24,SSW,195,0.0,3.0,63,0.00,,---,0.00,VWS V14.01,2013-04-28 10:48:00,
2013-04-28 06:49:00,50.5,38.4,30.24,SSW,195,0.0,3.0,63,0.00,,---,0.00,VWS V14.01,2013-04-28 10:49:00,
2013-04-28 06:52:00,50.4,38.3,30.24,SSW,195,0.0,3.0,63,0.00,,---,0.00,VWS V14.01,2013-04-28 10:52:00,
2013-04-28 06:54:00,50.4,38.3,30.24,SSW,195,0.0,3.0,63,0.00,,---,0.00,VWS V14.01,2013-04-28 10:54:00,
2013-04-28 06:57:00,50.7,38.2,30.24,SSW,195,0.0,3.0,62,0.00,,---,0.00,VWS V14.01,2013-04-28 10:57:00,
2013-04-28 06:59:00,50.8,38.3,30.24,SSW,194,0.0,3.0,62,0.00,,---,0.00,VWS V14.01,2013-04-28 10:59:00,
2013-04-28 07:00:00,50.9,38.4,30.24,SSW,194,0.0,3.0,62,0.00,,---,0.00,VWS V14.01,2013-04-28 11:00:00,
2013-04-28 07:02:00,50.9,38.4,30.24,SSW,194,0.0,3.0,62,0.00,,---,0.00,VWS V14.01,2013-04-28 11:02:00,
2013-04-28 07:03:00,50.9,38.4,30.24,SSW,198,0.0,3.0,62,0.00,,---,0.00,VWS V14.01,2013-04-28 11:03:00,
2013-04-28 07:04:00,50.9,38.4,30.24,SSW,198,0.0,0.0,62,0.00,,---,0.00,VWS V14.01,2013-04-28 11:04:00,
2013-04-28 07:05:00,50.9,38.4,30.24,SSW,198,0.0,0.0,62,0.00,,---,0.00,VWS V14.01,2013-04-28 11:05:00,
2013-04-28 07:07:00,50.9,38.8,30.24,SSW,198,0.0,0.0,63,0.00,,---,0.00,VWS V14.01,2013-04-28 11:07:00,
2013-04-28 07:08:00,50.9,38.4,30.24,SSW,198,0.0,0.0,62,0.00,,---,0.00,VWS V14.01,2013-04-28 11:08:00,
2013-04-28 07:09:00,50.9,38.8,30.24,SSW,198,0.0,0.0,63,0.00,,---,0.00,VWS V14.01,2013-04-28 11:09:00,
2013-04-28 07:10:00,50.9,38.8,30.25,SSW,198,0.0,0.0,63,0.00,,---,0.00,VWS V14.01,2013-04-28 11:10:00,
2013-04-28 07:12:00,50.8,38.7,30.25,SSW,198,0.0,0.0,63,0.00,,---,0.00,VWS V14.01,2013-04-28 11:12:00,
2013-04-28 07:13:00,50.8,38.7,30.25,SSW,198,0.0,0.0,63,0.00,,---,0.00,VWS V14.01,2013-04-28 11:13:00,
2013-04-28 07:15:00,50.8,38.7,30.25,SSW,198,0.0,0.0,63,0.00,,---,0.00,VWS V14.01,2013-04-28 11:15:00,
2013-04-28 07:16:00,50.8,38.7,30.25,SSW,198,0.0,0.0,63,0.00,,---,0.00,VWS V14.01,2013-04-28 11:16:00,
2013-04-28 07:18:00,50.9,38.8,30.24,SSW,198,0.0,0.0,63,0.00,,---,0.00,VWS V14.01,2013-04-28 11:18:00,
2013-04-28 07:19:00,51.0,38.5,30.24,SSW,198,0.0,0.0,62,0.00,,---,0.00,VWS V14.01,2013-04-28 11:19:00,
2013-04-28 07:20:00,51.1,38.5,30.25,SSW,198,0.0,0.0,62,0.00,,---,0.00,VWS V14.01,2013-04-28 11:20:00,
2013-04-28 07:21:00,51.2,38.6,30.24,SSW,198,0.0,0.0,62,0.00,,---,0.00,VWS V14.01,2013-04-28 11:21:00,
2013-04-28 07:23:00,51.2,38.6,30.24,SSW,198,0.0,0.0,62,0.00,,---,0.00,VWS V14.01,2013-04-28 11:23:00,
2013-04-28 07:24:00,51.2,39.0,30.24,SSW,198,0.0,0.0,63,0.00,,---,0.00,VWS V14.01,2013-04-28 11:24:00,
2013-04-28 07:26:00,51.3,39.2,30.24,SSW,198,0.0,2.0,63,0.00,,---,0.00,VWS V14.01,2013-04-28 11:26:00,
2013-04-28 07:27:00,51.4,39.2,30.24,SSW,198,0.0,2.0,63,0.00,,---,0.00,VWS V14.01,2013-04-28 11:27:00,
2013-04-28 07:28:00,51.4,39.2,30.24,SSW,198,0.0,2.0,63,0.00,,---,0.00,VWS V14.01,2013-04-28 11:28:00,
2013-04-28 07:29:00,51.4,39.2,30.24,SSW,198,0.0,2.0,63,0.00,,---,0.00,VWS V14.01,2013-04-28 11:29:00,
2013-04-28 07:31:00,51.6,39.0,30.24,SSW,198,2.0,2.0,62,0.00,,---,0.00,VWS V14.01,2013-04-28 11:31:00,
2013-04-28 07:33:00,51.9,39.3,30.24,South,191,3.0,3.0,62,0.00,,---,0.00,VWS V14.01,2013-04-28 11:33:00,
2013-04-28 07:34:00,52.0,39.0,30.24,South,191,0.0,1.0,61,0.00,,---,0.00,VWS V14.01,2013-04-28 11:34:00,
2013-04-28 07:35:00,52.1,39.1,30.24,South,191,0.0,1.0,61,0.00,,---,0.00,VWS V14.01,2013-04-28 11:35:00,
2013-04-28 07:37:00,52.3,39.3,30.24,South,187,0.0,3.0,61,0.00,,---,0.00,VWS V14.01,2013-04-28 11:37:00,
2013-04-28 07:39:00,52.4,39.4,30.24,WSW,250,0.0,3.0,61,0.00,,---,0.00,VWS V14.01,2013-04-28 11:39:00,
2013-04-28 07:40:00,52.5,39.5,30.24,WSW,250,0.0,3.0,61,0.00,,---,0.00,VWS V14.01,2013-04-28 11:40:00,
2013-04-28 07:43:00,52.8,39.3,30.24,SSW,211,3.0,3.0,60,0.00,,---,0.00,VWS V14.01,2013-04-28 11:43:00,
2013-04-28 07:44:00,52.9,39.0,30.24,SSW,211,0.0,3.0,59,0.00,,---,0.00,VWS V14.01,2013-04-28 11:44:00,
2013-04-28 07:45:00,53.0,39.1,30.24,SSW,211,0.0,3.0,59,0.00,,---,0.00,VWS V14.01,2013-04-28 11:45:00,
2013-04-28 07:46:00,53.1,39.6,30.24,SSW,211,0.0,3.0,60,0.00,,---,0.00,VWS V14.01,2013-04-28 11:46:00,
2013-04-28 07:48:00,53.2,39.7,30.24,SSW,211,0.0,3.0,60,0.00,,---,0.00,VWS V14.01,2013-04-28 11:48:00,
2013-04-28 07:50:00,53.3,39.3,30.24,SSW,211,2.0,3.0,59,0.00,,---,0.00,VWS V14.01,2013-04-28 11:50:00,
2013-04-28 07:51:00,53.5,39.5,30.24,SSW,211,0.0,3.0,59,0.00,,---,0.00,VWS V14.01,2013-04-28 11:51:00,
2013-04-28 07:53:00,53.6,39.2,30.24,SSW,211,0.0,3.0,58,0.00,,---,0.00,VWS V14.01,2013-04-28 11:53:00,
2013-04-28 07:55:00,53.7,39.3,30.24,South,170,0.0,5.0,58,0.00,,---,0.00,VWS V14.01,2013-04-28 11:55:00,
2013-04-28 07:56:00,53.8,39.4,30.24,South,186,0.0,5.0,58,0.00,,---,0.00,VWS V14.01,2013-04-28 11:56:00,
2013-04-28 07:58:00,53.9,39.0,30.24,SSE,165,0.0,5.0,57,0.00,,---,0.00,VWS V14.01,2013-04-28 11:58:00,
2013-04-28 08:00:00,54.0,39.6,30.24,East,84,1.0,5.0,58,0.00,,---,0.00,VWS V14.01,2013-04-28 12:00:00,
2013-04-28 08:01:00,54.1,39.7,30.24,SE,146,0.0,5.0,58,0.00,,---,0.00,VWS V14.01,2013-04-28 12:01:00,
2013-04-28 08:03:00,54.2,39.8,30.24,SE,136,0.0,5.0,58,0.00,,---,0.00,VWS V14.01,2013-04-28 12:03:00,
2013-04-28 08:05:00,54.3,39.4,30.24,SSE,157,0.0,3.0,57,0.00,,---,0.00,VWS V14.01,2013-04-28 12:05:00,
2013-04-28 08:06:00,54.4,40.0,30.24,SSE,157,0.0,3.0,58,0.00,,---,0.00,VWS V14.01,2013-04-28 12:06:00,
2013-04-28 08:07:00,54.5,39.6,30.24,SSE,159,3.0,3.0,57,0.00,,---,0.00,VWS V14.01,2013-04-28 12:07:00,
2013-04-28 08:08:00,54.5,39.1,30.24,WSW,253,0.0,3.0,56,0.00,,---,0.00,VWS V14.01,2013-04-28 12:08:00,
2013-04-28 08:10:00,54.6,39.2,30.24,WSW,237,0.0,3.0,56,0.00,,---,0.00,VWS V14.01,2013-04-28 12:10:00,
2013-04-28 08:11:00,54.5,39.6,30.24,SSE,155,2.0,3.0,57,0.00,,---,0.00,VWS V14.01,2013-04-28 12:11:00,
2013-04-28 08:13:00,54.5,39.6,30.24,SSE,155,0.0,3.0,57,0.00,,---,0.00,VWS V14.01,2013-04-28 12:13:00,
2013-04-28 08:16:00,54.6,39.7,30.24,ESE,108,0.0,3.0,57,0.00,,---,0.00,VWS V14.01,2013-04-28 12:16:00,
2013-04-28 08:17:00,54.6,39.7,30.24,SE,128,0.0,3.0,57,0.00,,---,0.00,VWS V14.01,2013-04-28 12:17:00,
2013-04-28 08:18:00,54.6,40.1,30.24,SE,136,2.0,3.0,58,0.00,,---,0.00,VWS V14.01,2013-04-28 12:18:00,
2013-04-28 08:19:00,54.6,39.7,30.24,SE,136,0.0,3.0,57,0.00,,---,0.00,VWS V14.01,2013-04-28 12:19:00,
2013-04-28 08:21:00,54.7,40.2,30.24,SE,136,0.0,3.0,58,0.00,,---,0.00,VWS V14.01,2013-04-28 12:21:00,
2013-04-28 08:22:00,54.7,39.8,30.24,SE,136,0.0,3.0,57,0.00,,---,0.00,VWS V14.01,2013-04-28 12:22:00,
2013-04-28 08:23:00,54.8,39.9,30.24,SE,136,0.0,3.0,57,0.00,,---,0.00,VWS V14.01,2013-04-28 12:23:00,
2013-04-28 08:24:00,54.8,40.3,30.24,SSE,153,0.0,3.0,58,0.00,,---,0.00,VWS V14.01,2013-04-28 12:24:00,
2013-04-28 08:26:00,55.0,40.5,30.23,SSE,153,2.0,3.0,58,0.00,,---,0.00,VWS V14.01,2013-04-28 12:26:00,
2013-04-28 08:27:00,55.1,40.2,30.23,South,175,0.0,5.0,57,0.00,,---,0.00,VWS V14.01,2013-04-28 12:27:00,
2013-04-28 08:29:00,55.1,39.7,30.23,South,175,0.0,5.0,56,0.00,,---,0.00,VWS V14.01,2013-04-28 12:29:00,
2013-04-28 08:32:00,55.2,40.7,30.23,South,173,0.0,5.0,58,0.00,,---,0.00,VWS V14.01,2013-04-28 12:32:00,
2013-04-28 08:33:00,55.2,41.1,30.23,South,173,0.0,5.0,59,0.00,,---,0.00,VWS V14.01,2013-04-28 12:33:00,
2013-04-28 08:34:00,55.2,40.2,30.23,WNW,296,0.0,3.0,57,0.00,,---,0.00,VWS V14.01,2013-04-28 12:34:00,
2013-04-28 08:38:00,55.4,40.4,30.23,ENE,67,0.0,3.0,57,0.00,,---,0.00,VWS V14.01,2013-04-28 12:38:00,
2013-04-28 08:39:00,55.4,40.4,30.23,SSE,152,0.0,3.0,57,0.00,,---,0.00,VWS V14.01,2013-04-28 12:39:00,
2013-04-28 08:40:00,55.4,40.4,30.23,SSE,152,0.0,3.0,57,0.00,,---,0.00,VWS V14.01,2013-04-28 12:40:00,
2013-04-28 08:43:00,55.4,40.9,30.23,SSE,155,0.0,3.0,58,0.00,,---,0.00,VWS V14.01,2013-04-28 12:43:00,
2013-04-28 08:44:00,55.5,41.0,30.23,SSE,155,0.0,3.0,58,0.00,,---,0.00,VWS V14.01,2013-04-28 12:44:00,
2013-04-28 08:45:00,55.6,41.5,30.23,SSE,155,0.0,3.0,59,0.00,,---,0.00,VWS V14.01,2013-04-28 12:45:00,
2013-04-28 08:48:00,55.9,41.3,30.23,SSE,153,0.0,3.0,58,0.00,,---,0.00,VWS V14.01,2013-04-28 12:48:00,
2013-04-28 08:49:00,56.0,41.9,30.23,SSE,154,0.0,3.0,59,0.00,,---,0.00,VWS V14.01,2013-04-28 12:49:00,
2013-04-28 08:50:00,56.1,41.5,30.23,SSE,154,0.0,3.0,58,0.00,,---,0.00,VWS V14.01,2013-04-28 12:50:00,
2013-04-28 08:51:00,56.1,41.5,30.23,NE,46,0.0,3.0,58,0.00,,---,0.00,VWS V14.01,2013-04-28 12:51:00,
2013-04-28 08:54:00,56.4,41.8,30.23,NE,46,0.0,3.0,58,0.00,,---,0.00,VWS V14.01,2013-04-28 12:54:00,
2013-04-28 08:55:00,56.5,41.9,30.23,NNE,30,0.0,3.0,58,0.00,,---,0.00,VWS V14.01,2013-04-28 12:55:00,
2013-04-28 08:56:00,56.5,41.9,30.22,NNE,32,0.0,3.0,58,0.00,,---,0.00,VWS V14.01,2013-04-28 12:56:00,
2013-04-28 08:59:00,56.9,41.8,30.22,SSE,165,3.0,3.0,57,0.00,,---,0.00,VWS V14.01,2013-04-28 12:59:00,
2013-04-28 09:00:00,56.9,41.4,30.23,SSE,165,0.0,3.0,56,0.00,,---,0.00,VWS V14.01,2013-04-28 13:00:00,
2013-04-28 09:01:00,56.9,41.4,30.23,SSE,162,4.0,4.0,56,0.00,,---,0.00,VWS V14.01,2013-04-28 13:01:00,
2013-04-28 09:04:00,57.1,41.6,30.23,ESE,109,0.0,2.0,56,0.00,,---,0.00,VWS V14.01,2013-04-28 13:04:00,
2013-04-28 09:05:00,57.1,41.1,30.23,East,94,0.0,2.0,55,0.00,,---,0.00,VWS V14.01,2013-04-28 13:05:00,
2013-04-28 09:06:00,57.1,41.1,30.23,East,95,2.0,2.0,55,0.00,,---,0.00,VWS V14.01,2013-04-28 13:06:00,
2013-04-28 09:10:00,57.3,41.8,30.23,South,175,0.0,6.0,56,0.00,,---,0.00,VWS V14.01,2013-04-28 13:10:00,
2013-04-28 09:11:00,57.4,41.4,30.23,South,178,3.0,6.0,55,0.00,,---,0.00,VWS V14.01,2013-04-28 13:11:00,
2013-04-28 09:12:00,57.3,41.8,30.23,SE,132,4.0,6.0,56,0.00,,---,0.00,VWS V14.01,2013-04-28 13:12:00,
2013-04-28 09:15:00,57.3,41.8,30.23,SE,132,0.0,6.0,56,0.00,,---,0.00,VWS V14.01,2013-04-28 13:15:00,
2013-04-28 09:16:00,57.3,42.2,30.23,ESE,107,0.0,6.0,57,0.00,,---,0.00,VWS V14.01,2013-04-28 13:16:00,
2013-04-28 09:17:00,57.4,42.8,30.23,ESE,107,0.0,6.0,58,0.00,,---,0.00,VWS V14.01,2013-04-28 13:17:00,
2013-04-28 09:20:00,57.7,42.1,30.23,SSE,158,2.0,6.0,56,0.00,,---,0.00,VWS V14.01,2013-04-28 13:20:00,
2013-04-28 09:21:00,57.6,42.0,30.23,West,272,0.0,6.0,56,0.00,,---,0.00,VWS V14.01,2013-04-28 13:21:00,
2013-04-28 09:22:00,57.6,42.0,30.23,WSW,258,1.0,6.0,56,0.00,,---,0.00,VWS V14.01,2013-04-28 13:22:00,
2013-04-28 09:23:00,57.6,42.5,30.23,SW,221,2.0,6.0,57,0.00,,---,0.00,VWS V14.01,2013-04-28 13:23:00,
2013-04-28 09:26:00,57.4,41.8,30.23,South,178,0.0,6.0,56,0.00,,---,0.00,VWS V14.01,2013-04-28 13:26:00,
2013-04-28 09:27:00,57.4,42.3,30.23,East,98,1.0,6.0,57,0.00,,---,0.00,VWS V14.01,2013-04-28 13:27:00,
2013-04-28 09:28:00,57.4,42.3,30.23,SSE,149,4.0,6.0,57,0.00,,---,0.00,VWS V14.01,2013-04-28 13:28:00,
2013-04-28 09:29:00,57.4,42.8,30.23,SSE,150,0.0,6.0,58,0.00,,---,0.00,VWS V14.01,2013-04-28 13:29:00,
2013-04-28 09:31:00,57.6,42.5,30.23,SSE,150,0.0,6.0,57,0.00,,---,0.00,VWS V14.01,2013-04-28 13:31:00,
2013-04-28 09:33:00,57.9,42.8,30.23,SE,130,3.0,6.0,57,0.00,,---,0.00,VWS V14.01,2013-04-28 13:33:00,
2013-04-28 09:34:00,58.0,42.4,30.23,ESE,103,4.0,6.0,56,0.00,,---,0.00,VWS V14.01,2013-04-28 13:34:00,
2013-04-28 09:36:00,58.0,42.9,30.23,ENE,68,3.0,6.0,57,0.00,,---,0.00,VWS V14.01,2013-04-28 13:36:00,
2013-04-28 09:38:00,58.1,43.4,30.23,East,101,0.0,6.0,58,0.00,,---,0.00,VWS V14.01,2013-04-28 13:38:00,
2013-04-28 09:39:00,58.2,43.5,30.23,East,101,0.0,6.0,58,0.00,,---,0.00,VWS V14.01,2013-04-28 13:39:00,
2013-04-28 09:42:00,58.3,42.7,30.23,South,175,3.0,7.0,56,0.00,,---,0.00,VWS V14.01,2013-04-28 13:42:00,
2013-04-28 09:43:00,58.2,43.1,30.23,SSW,206,3.0,7.0,57,0.00,,---,0.00,VWS V14.01,2013-04-28 13:43:00,
2013-04-28 09:44:00,58.2,42.6,30.23,South,182,0.0,7.0,56,0.00,,---,0.00,VWS V14.01,2013-04-28 13:44:00,
2013-04-28 09:47:00,58.3,43.2,30.23,SSE,157,0.0,7.0,57,0.00,,---,0.00,VWS V14.01,2013-04-28 13:47:00,
2013-04-28 09:48:00,58.4,42.8,30.23,ESE,106,1.0,7.0,56,0.00,,---,0.00,VWS V14.01,2013-04-28 13:48:00,
2013-04-28 09:49:00,58.5,42.4,30.23,SSE,159,0.0,7.0,55,0.00,,---,0.00,VWS V14.01,2013-04-28 13:49:00,
2013-04-28 09:50:00,58.3,42.2,30.23,SSW,206,5.0,7.0,55,0.00,,---,0.00,VWS V14.01,2013-04-28 13:50:00,
2013-04-28 09:52:00,58.2,43.1,30.23,SSW,211,0.0,7.0,57,0.00,,---,0.00,VWS V14.01,2013-04-28 13:52:00,
2013-04-28 09:54:00,58.3,43.2,30.23,SE,144,1.0,7.0,57,0.00,,---,0.00,VWS V14.01,2013-04-28 13:54:00,
2013-04-28 09:55:00,58.2,42.1,30.23,SSE,167,4.0,7.0,55,0.00,,---,0.00,VWS V14.01,2013-04-28 13:55:00,
2013-04-28 09:58:00,58.3,42.7,30.23,SSE,168,0.0,7.0,56,0.00,,---,0.00,VWS V14.01,2013-04-28 13:58:00,
2013-04-28 09:59:00,58.2,42.6,30.23,SSE,168,0.0,7.0,56,0.00,,---,0.00,VWS V14.01,2013-04-28 13:59:00,
2013-04-28 10:01:00,58.2,42.1,30.23,SW,219,0.0,7.0,55,0.00,,---,0.00,VWS V14.01,2013-04-28 14:01:00,
2013-04-28 10:03:00,58.4,42.8,30.23,ENE,77,5.0,7.0,56,0.00,,---,0.00,VWS V14.01,2013-04-28 14:03:00,
2013-04-28 10:05:00,58.6,43.4,30.23,SE,138,0.0,3.0,57,0.00,,---,0.00,VWS V14.01,2013-04-28 14:05:00,
2013-04-28 10:06:00,58.7,43.5,30.23,NW,309,2.0,3.0,57,0.00,,---,0.00,VWS V14.01,2013-04-28 14:06:00,
2013-04-28 10:09:00,58.7,43.1,30.23,SSE,153,3.0,3.0,56,0.00,,---,0.00,VWS V14.01,2013-04-28 14:09:00,
2013-04-28 10:10:00,58.7,43.1,30.24,South,182,10.0,10.0,56,0.00,,---,0.00,VWS V14.01,2013-04-28 14:10:00,
2013-04-28 10:11:00,58.4,42.3,30.24,SSW,197,0.0,10.0,55,0.00,,---,0.00,VWS V14.01,2013-04-28 14:11:00,
2013-04-28 10:12:00,58.3,42.2,30.24,South,169,4.0,10.0,55,0.00,,---,0.00,VWS V14.01,2013-04-28 14:12:00,
2013-04-28 10:15:00,58.0,42.4,30.24,West,275,0.0,10.0,56,0.00,,---,0.00,VWS V14.01,2013-04-28 14:15:00,
2013-04-28 10:16:00,57.9,42.8,30.24,SW,217,0.0,10.0,57,0.00,,---,0.00,VWS V14.01,2013-04-28 14:16:00,
2013-04-28 10:17:00,57.9,41.8,30.24,East,80,0.0,10.0,55,0.00,,---,0.00,VWS V14.01,2013-04-28 14:17:00,
2013-04-28 10:20:00,58.2,43.1,30.24,ESE,118,4.0,10.0,57,0.00,,---,0.00,VWS V14.01,2013-04-28 14:20:00,
2013-04-28 10:21:00,58.3,44.0,30.24,ESE,119,0.0,10.0,59,0.00,,---,0.00,VWS V14.01,2013-04-28 14:21:00,
2013-04-28 10:22:00,58.3,42.7,30.24,ESE,119,0.0,10.0,56,0.00,,---,0.00,VWS V14.01,2013-04-28 14:22:00,
2013-04-28 10:25:00,58.1,43.4,30.24,ESE,123,0.0,10.0,58,0.00,,---,0.00,VWS V14.01,2013-04-28 14:25:00,
2013-04-28 10:26:00,58.3,43.6,30.24,SE,130,0.0,10.0,58,0.00,,---,0.00,VWS V14.01,2013-04-28 14:26:00,
2013-04-28 10:27:00,58.5,43.8,30.24,SE,131,0.0,10.0,58,0.00,,---,0.00,VWS V14.01,2013-04-28 14:27:00,
2013-04-28 10:30:00,59.0,43.8,30.23,ESE,118,0.0,10.0,57,0.00,,---,0.00,VWS V14.01,2013-04-28 14:30:00,
2013-04-28 10:31:00,59.0,42.9,30.23,ESE,119,0.0,10.0,55,0.00,,---,0.00,VWS V14.01,2013-04-28 14:31:00,
2013-04-28 10:32:00,59.0,43.3,30.23,SE,138,1.0,10.0,56,0.00,,---,0.00,VWS V14.01,2013-04-28 14:32:00,
2013-04-28 10:36:00,59.0,42.9,30.24,South,169,0.0,4.0,55,0.00,,---,0.00,VWS V14.01,2013-04-28 14:36:00,
2013-04-28 10:37:00,59.0,42.4,30.24,SE,128,0.0,4.0,54,0.00,,---,0.00,VWS V14.01,2013-04-28 14:37:00,
2013-04-28 10:38:00,59.0,43.3,30.24,ESE,107,0.0,4.0,56,0.00,,---,0.00,VWS V14.01,2013-04-28 14:38:00,
2013-04-28 10:41:00,60.1,43.9,30.23,SE,141,0.0,4.0,55,0.00,,---,0.00,VWS V14.01,2013-04-28 14:41:00,
2013-04-28 10:42:00,60.3,44.1,30.23,SSE,160,0.0,4.0,55,0.00,,---,0.00,VWS V14.01,2013-04-28 14:42:00,
2013-04-28 10:43:00,60.5,44.3,30.23,SSE,163,0.0,4.0,55,0.00,,---,0.00,VWS V14.01,2013-04-28 14:43:00,
2013-04-28 10:47:00,60.3,43.1,30.23,ENE,75,0.0,7.0,53,0.00,,---,0.00,VWS V14.01,2013-04-28 14:47:00,
2013-04-28 10:48:00,60.0,43.8,30.23,SSE,160,0.0,7.0,55,0.00,,---,0.00,VWS V14.01,2013-04-28 14:48:00,
2013-04-28 10:52:00,59.5,42.9,30.23,West,278,2.0,9.0,54,0.00,,---,0.00,VWS V14.01,2013-04-28 14:52:00,
2013-04-28 10:54:00,59.4,43.2,30.23,SE,131,0.0,9.0,55,0.00,,---,0.00,VWS V14.01,2013-04-28 14:54:00,
2013-04-28 10:57:00,59.0,42.4,30.23,ENE,71,1.0,9.0,54,0.00,,---,0.00,VWS V14.01,2013-04-28 14:57:00,
2013-04-28 10:58:00,59.0,42.4,30.23,ENE,71,0.0,9.0,54,0.00,,---,0.00,VWS V14.01,2013-04-28 14:58:00,
2013-04-28 10:59:00,59.0,43.8,30.23,ESE,113,4.0,9.0,57,0.00,,---,0.00,VWS V14.01,2013-04-28 14:59:00,
2013-04-28 11:00:00,59.0,43.3,30.23,SSW,204,4.0,9.0,56,0.00,,---,0.00,VWS V14.01,2013-04-28 15:00:00,
2013-04-28 11:03:00,59.0,43.8,30.23,South,175,0.0,9.0,57,0.00,,---,0.00,VWS V14.01,2013-04-28 15:03:00,
2013-04-28 11:04:00,59.0,43.8,30.23,South,173,0.0,9.0,57,0.00,,---,0.00,VWS V14.01,2013-04-28 15:04:00,
2013-04-28 11:05:00,59.0,43.3,30.24,South,171,0.0,2.0,56,0.00,,---,0.00,VWS V14.01,2013-04-28 15:05:00,
2013-04-28 11:08:00,59.0,43.3,30.24,South,180,0.0,5.0,56,0.00,,---,0.00,VWS V14.01,2013-04-28 15:08:00,
2013-04-28 11:09:00,59.0,43.8,30.23,South,184,0.0,5.0,57,0.00,,---,0.00,VWS V14.01,2013-04-28 15:09:00,
2013-04-28 11:10:00,58.9,43.2,30.24,SE,140,2.0,5.0,56,0.00,,---,0.00,VWS V14.01,2013-04-28 15:10:00,
2013-04-28 11:13:00,58.5,42.9,30.24,South,170,0.0,5.0,56,0.00,,---,0.00,VWS V14.01,2013-04-28 15:13:00,
2013-04-28 11:14:00,58.4,43.2,30.24,SE,146,0.0,5.0,57,0.00,,---,0.00,VWS V14.01,2013-04-28 15:14:00,
2013-04-28 11:15:00,58.4,43.2,30.24,SSE,147,0.0,5.0,57,0.00,,---,0.00,VWS V14.01,2013-04-28 15:15:00,
2013-04-28 11:19:00,58.2,43.5,30.24,South,183,0.0,5.0,58,0.00,,---,0.00,VWS V14.01,2013-04-28 15:19:00,
2013-04-28 11:20:00,58.1,43.4,30.24,South,183,0.0,5.0,58,0.00,,---,0.00,VWS V14.01,2013-04-28 15:20:00,
2013-04-28 11:21:00,58.1,43.4,30.24,SSE,168,0.0,5.0,58,0.00,,---,0.00,VWS V14.01,2013-04-28 15:21:00,
2013-04-28 11:24:00,57.8,43.1,30.24,South,178,2.0,5.0,58,0.00,,---,0.00,VWS V14.01,2013-04-28 15:24:00,
2013-04-28 11:26:00,57.8,43.1,30.24,SSE,168,0.0,5.0,58,0.00,,---,0.00,VWS V14.01,2013-04-28 15:26:00,
2013-04-28 11:29:00,57.6,43.4,30.24,SSW,194,1.0,5.0,59,0.00,,---,0.00,VWS V14.01,2013-04-28 15:29:00,
2013-04-28 11:30:00,57.6,43.4,30.24,ESE,109,4.0,7.0,59,0.00,,---,0.00,VWS V14.01,2013-04-28 15:30:00,
2013-04-28 11:31:00,57.5,43.3,30.25,South,180,0.0,7.0,59,0.00,,---,0.00,VWS V14.01,2013-04-28 15:31:00,
2013-04-28 11:32:00,57.5,43.3,30.25,South,180,0.0,7.0,59,0.00,,---,0.00,VWS V14.01,2013-04-28 15:32:00,
2013-04-28 11:35:00,57.3,43.1,30.25,South,189,0.0,1.0,59,0.00,,---,0.00,VWS V14.01,2013-04-28 15:35:00,
2013-04-28 11:36:00,57.4,43.6,30.24,South,189,1.0,1.0,60,0.00,,---,0.00,VWS V14.01,2013-04-28 15:36:00,
2013-04-28 11:37:00,57.4,44.1,30.25,South,189,0.0,1.0,61,0.00,,---,0.00,VWS V14.01,2013-04-28 15:37:00,
2013-04-28 11:40:00,57.5,44.2,30.24,South,186,0.0,3.0,61,0.00,,---,0.00,VWS V14.01,2013-04-28 15:40:00,
2013-04-28 11:41:00,57.5,43.7,30.24,South,188,2.0,3.0,60,0.00,,---,0.00,VWS V14.01,2013-04-28 15:41:00,
2013-04-28 11:42:00,57.6,44.3,30.25,South,188,0.0,3.0,61,0.00,,---,0.00,VWS V14.01,2013-04-28 15:42:00,
2013-04-28 11:45:00,57.6,43.8,30.24,ESE,103,0.0,4.0,60,0.00,,---,0.00,VWS V14.01,2013-04-28 15:45:00,
2013-04-28 11:46:00,57.6,43.8,30.25,SSE,148,0.0,4.0,60,0.00,,---,0.00,VWS V14.01,2013-04-28 15:46:00,
2013-04-28 11:47:00,57.6,43.8,30.25,SSW,198,0.0,4.0,60,0.00,,---,0.00,VWS V14.01,2013-04-28 15:47:00,
2013-04-28 11:48:00,57.6,43.8,30.25,SSW,213,0.0,4.0,60,0.00,,---,0.00,VWS V14.01,2013-04-28 15:48:00,
2013-04-28 11:51:00,57.7,43.9,30.25,NW,317,0.0,4.0,60,0.00,,---,0.00,VWS V14.01,2013-04-28 15:51:00,
2013-04-28 11:52:00,57.8,44.0,30.25,SSE,165,1.0,4.0,60,0.00,,---,0.00,VWS V14.01,2013-04-28 15:52:00,
2013-04-28 11:53:00,57.8,44.0,30.25,SW,225,1.0,5.0,60,0.00,,---,0.00,VWS V14.01,2013-04-28 15:53:00,
2013-04-28 11:56:00,58.0,44.2,30.25,WSW,238,2.0,5.0,60,0.00,,---,0.00,VWS V14.01,2013-04-28 15:56:00,
2013-04-28 11:57:00,58.1,44.3,30.25,SE,138,0.0,5.0,60,0.00,,---,0.00,VWS V14.01,2013-04-28 15:57:00,
2013-04-28 11:58:00,58.2,44.4,30.24,SE,138,0.0,5.0,60,0.00,,---,0.00,VWS V14.01,2013-04-28 15:58:00,
2013-04-28 12:02:00,58.4,44.6,30.24,SSE,163,0.0,5.0,60,0.00,,---,0.00,VWS V14.01,2013-04-28 16:02:00,
2013-04-28 12:03:00,58.4,44.6,30.24,SSE,163,0.0,5.0,60,0.00,,---,0.00,VWS V14.01,2013-04-28 16:03:00,
2013-04-28 12:04:00,58.5,44.7,30.24,SSE,163,0.0,0.0,60,0.00,,---,0.00,VWS V14.01,2013-04-28 16:04:00,
2013-04-28 12:07:00,59.0,45.2,30.24,SSW,209,2.0,6.0,60,0.00,,---,0.00,VWS V14.01,2013-04-28 16:07:00,
2013-04-28 12:08:00,59.0,44.7,30.24,SSW,195,3.0,10.0,59,0.00,,---,0.00,VWS V14.01,2013-04-28 16:08:00,
2013-04-28 12:10:00,59.0,44.7,30.24,South,179,0.0,10.0,59,0.00,,---,0.00,VWS V14.01,2013-04-28 16:10:00,
2013-04-28 12:12:00,59.0,45.2,30.24,SW,215,4.0,10.0,60,0.00,,---,0.00,VWS V14.01,2013-04-28 16:12:00,
2013-04-28 12:13:00,59.0,44.3,30.23,South,180,0.0,10.0,58,0.00,,---,0.00,VWS V14.01,2013-04-28 16:13:00,
2013-04-28 12:14:00,59.0,44.3,30.24,SSE,160,3.0,10.0,58,0.00,,---,0.00,VWS V14.01,2013-04-28 16:14:00,
2013-04-28 12:15:00,59.0,44.3,30.24,SSE,153,3.0,10.0,58,0.00,,---,0.00,VWS V14.01,2013-04-28 16:15:00,
2013-04-28 12:17:00,59.0,44.3,30.23,South,177,0.0,10.0,58,0.00,,---,0.00,VWS V14.01,2013-04-28 16:17:00,
2013-04-28 12:18:00,59.0,44.3,30.23,South,184,3.0,10.0,58,0.00,,---,0.00,VWS V14.01,2013-04-28 16:18:00,
2013-04-28 12:19:00,59.0,44.3,30.23,SSE,168,4.0,10.0,58,0.00,,---,0.00,VWS V14.01,2013-04-28 16:19:00,
2013-04-28 12:20:00,59.0,44.3,30.23,SSE,165,3.0,10.0,58,0.00,,---,0.00,VWS V14.01,2013-04-28 16:20:00,
2013-04-28 12:23:00,59.0,44.3,30.23,South,170,0.0,10.0,58,0.00,,---,0.00,VWS V14.01,2013-04-28 16:23:00,
2013-04-28 12:24:00,59.0,44.3,30.23,South,170,0.0,10.0,58,0.00,,---,0.00,VWS V14.01,2013-04-28 16:24:00,
2013-04-28 12:25:00,59.1,44.3,30.23,South,170,0.0,10.0,58,0.00,,---,0.00,VWS V14.01,2013-04-28 16:25:00,
2013-04-28 12:29:00,59.7,44.5,30.23,East,80,2.0,10.0,57,0.00,,---,0.00,VWS V14.01,2013-04-28 16:29:00,
2013-04-28 12:30:00,59.7,44.9,30.23,SSW,206,0.0,10.0,58,0.00,,---,0.00,VWS V14.01,2013-04-28 16:30:00,
2013-04-28 12:34:00,59.8,45.0,30.23,SW,220,0.0,10.0,58,0.00,,---,0.00,VWS V14.01,2013-04-28 16:34:00,
2013-04-28 12:35:00,59.9,45.1,30.23,SW,219,0.0,0.0,58,0.00,,---,0.00,VWS V14.01,2013-04-28 16:35:00,
2013-04-28 12:36:00,59.9,45.1,30.23,SW,220,0.0,0.0,58,0.00,,---,0.00,VWS V14.01,2013-04-28 16:36:00,
2013-04-28 12:39:00,60.1,44.8,30.23,SW,219,0.0,1.0,57,0.00,,---,0.00,VWS V14.01,2013-04-28 16:39:00,
2013-04-28 12:40:00,60.2,44.9,30.23,SW,214,0.0,1.0,57,0.00,,---,0.00,VWS V14.01,2013-04-28 16:40:00,
2013-04-28 12:41:00,60.2,44.9,30.23,SE,146,0.0,1.0,57,0.00,,---,0.00,VWS V14.01,2013-04-28 16:41:00,
2013-04-28 12:42:00,60.2,44.9,30.23,SSW,211,2.0,4.0,57,0.00,,---,0.00,VWS V14.01,2013-04-28 16:42:00,
2013-04-28 12:45:00,59.9,44.7,30.23,WSW,252,0.0,5.0,57,0.00,,---,0.00,VWS V14.01,2013-04-28 16:45:00,
2013-04-28 12:46:00,59.9,44.7,30.23,South,171,4.0,5.0,57,0.00,,---,0.00,VWS V14.01,2013-04-28 16:46:00,
2013-04-28 12:47:00,59.8,44.1,30.23,South,174,1.0,6.0,56,0.00,,---,0.00,VWS V14.01,2013-04-28 16:47:00,
2013-04-28 12:50:00,59.4,43.7,30.23,SW,217,2.0,6.0,56,0.00,,---,0.00,VWS V14.01,2013-04-28 16:50:00,
2013-04-28 12:51:00,59.4,44.2,30.23,SSW,209,0.0,6.0,57,0.00,,---,0.00,VWS V14.01,2013-04-28 16:51:00,
2013-04-28 12:52:00,59.2,43.5,30.23,South,188,0.0,6.0,56,0.00,,---,0.00,VWS V14.01,2013-04-28 16:52:00,
2013-04-28 12:56:00,59.0,43.8,30.22,SSW,200,6.0,7.0,57,0.00,,---,0.00,VWS V14.01,2013-04-28 16:56:00,
2013-04-28 12:57:00,59.0,43.8,30.23,South,183,3.0,7.0,57,0.00,,---,0.00,VWS V14.01,2013-04-28 16:57:00,
2013-04-28 13:01:00,58.7,43.5,30.23,WSW,240,5.0,11.0,57,0.00,,---,0.00,VWS V14.01,2013-04-28 17:01:00,
2013-04-28 13:02:00,58.7,44.4,30.22,South,175,0.0,11.0,59,0.00,,---,0.00,VWS V14.01,2013-04-28 17:02:00,
2013-04-28 13:06:00,59.0,43.8,30.23,SW,223,2.0,5.0,57,0.00,,---,0.00,VWS V14.01,2013-04-28 17:06:00,
2013-04-28 13:07:00,59.0,43.8,30.22,South,169,0.0,9.0,57,0.00,,---,0.00,VWS V14.01,2013-04-28 17:07:00,
2013-04-28 13:08:00,59.0,43.8,30.22,South,172,3.0,9.0,57,0.00,,---,0.00,VWS V14.01,2013-04-28 17:08:00,
2013-04-28 13:12:00,59.0,43.8,30.23,SW,219,0.0,9.0,57,0.00,,---,0.00,VWS V14.01,2013-04-28 17:12:00,
2013-04-28 13:13:00,59.0,43.8,30.23,West,276,9.0,9.0,57,0.00,,---,0.00,VWS V14.01,2013-04-28 17:13:00,
2013-04-28 13:17:00,59.0,43.8,30.23,SW,217,2.0,9.0,57,0.00,,---,0.00,VWS V14.01,2013-04-28 17:17:00,
2013-04-28 13:18:00,59.0,43.8,30.23,SSE,152,6.0,9.0,57,0.00,,---,0.00,VWS V14.01,2013-04-28 17:18:00,
2013-04-28 13:19:00,59.0,43.8,30.22,SSE,165,3.0,9.0,57,0.00,,---,0.00,VWS V14.01,2013-04-28 17:19:00,
2013-04-28 13:23:00,59.0,43.8,30.23,SW,216,4.0,9.0,57,0.00,,---,0.00,VWS V14.01,2013-04-28 17:23:00,
2013-04-28 13:24:00,59.0,43.8,30.22,South,175,0.0,9.0,57,0.00,,---,0.00,VWS V14.01,2013-04-28 17:24:00,
2013-04-28 13:28:00,58.8,43.6,30.23,SSW,207,0.0,9.0,57,0.00,,---,0.00,VWS V14.01,2013-04-28 17:28:00,
2013-04-28 13:29:00,58.8,43.6,30.23,SE,132,2.0,9.0,57,0.00,,---,0.00,VWS V14.01,2013-04-28 17:29:00,
2013-04-28 13:30:00,58.8,43.6,30.22,SSE,164,5.0,9.0,57,0.00,,---,0.00,VWS V14.01,2013-04-28 17:30:00,
2013-04-28 13:33:00,58.6,43.9,30.22,South,183,0.0,9.0,58,0.00,,---,0.00,VWS V14.01,2013-04-28 17:33:00,
2013-04-28 13:34:00,58.6,43.9,30.22,South,180,0.0,9.0,58,0.00,,---,0.00,VWS V14.01,2013-04-28 17:34:00,
2013-04-28 13:35:00,58.6,43.9,30.22,South,183,4.0,4.0,58,0.00,,---,0.00,VWS V14.01,2013-04-28 17:35:00,
2013-04-28 13:38:00,58.2,44.4,30.22,SW,229,5.0,5.0,60,0.00,,---,0.00,VWS V14.01,2013-04-28 17:38:00,
2013-04-28 13:39:00,58.0,44.2,30.22,SW,215,5.0,5.0,60,0.00,,---,0.00,VWS V14.01,2013-04-28 17:39:00,
2013-04-28 13:40:00,57.9,44.1,30.22,SW,221,0.0,5.0,60,0.00,,---,0.00,VWS V14.01,2013-04-28 17:40:00,
2013-04-28 13:41:00,57.7,44.4,30.22,SW,221,0.0,5.0,61,0.00,,---,0.00,VWS V14.01,2013-04-28 17:41:00,
2013-04-28 13:44:00,57.3,44.4,30.23,WNW,284,0.0,5.0,62,0.00,,---,0.00,VWS V14.01,2013-04-28 17:44:00,
2013-04-28 13:45:00,57.1,44.6,30.23,WSW,238,0.0,5.0,63,0.00,,---,0.00,VWS V14.01,2013-04-28 17:45:00,
2013-04-28 13:46:00,57.0,45.0,30.23,SSW,210,2.0,5.0,64,0.00,,---,0.00,VWS V14.01,2013-04-28 17:46:00,
2013-04-28 13:49:00,56.7,45.5,30.23,SW,214,0.0,5.0,66,0.00,,---,0.00,VWS V14.01,2013-04-28 17:49:00,
2013-04-28 13:50:00,56.7,45.1,30.23,SW,214,0.0,5.0,65,0.00,,---,0.00,VWS V14.01,2013-04-28 17:50:00,
2013-04-28 13:53:00,56.5,45.3,30.23,SSW,210,0.0,5.0,66,0.00,,---,0.00,VWS V14.01,2013-04-28 17:53:00,
2013-04-28 13:55:00,56.4,45.2,30.23,SSW,210,0.0,5.0,66,0.00,,---,0.00,VWS V14.01,2013-04-28 17:55:00,
2013-04-28 13:56:00,56.4,44.8,30.23,SSW,210,0.0,5.0,65,0.00,,---,0.00,VWS V14.01,2013-04-28 17:56:00,
2013-04-28 13:58:00,56.3,45.1,30.23,SW,227,0.0,5.0,66,0.00,,---,0.00,VWS V14.01,2013-04-28 17:58:00,
2013-04-28 14:00:00,56.3,45.1,30.23,SW,227,0.0,5.0,66,0.00,,---,0.00,VWS V14.01,2013-04-28 18:00:00,
2013-04-28 14:01:00,56.2,45.4,30.23,West,264,1.0,5.0,67,0.00,,---,0.00,VWS V14.01,2013-04-28 18:01:00,
2013-04-28 14:04:00,55.7,45.7,30.23,South,184,0.0,0.0,69,0.00,,---,0.00,VWS V14.01,2013-04-28 18:04:00,
2013-04-28 14:05:00,55.6,46.0,30.23,SSW,198,0.0,2.0,70,0.00,,---,0.00,VWS V14.01,2013-04-28 18:05:00,
2013-04-28 14:06:00,55.4,46.2,30.23,SSW,198,0.0,2.0,71,0.00,,---,0.00,VWS V14.01,2013-04-28 18:06:00,
2013-04-28 14:07:00,55.2,46.3,30.23,SSW,198,0.0,2.0,72,0.00,,---,0.00,VWS V14.01,2013-04-28 18:07:00,
2013-04-28 14:10:00,54.7,46.6,30.23,WSW,243,0.0,3.0,74,0.00,,---,0.00,VWS V14.01,2013-04-28 18:10:00,
2013-04-28 14:11:00,54.5,46.4,30.23,ENE,74,0.0,4.0,74,0.00,,---,0.00,VWS V14.01,2013-04-28 18:11:00,
2013-04-28 14:12:00,54.3,46.9,30.23,SSW,205,0.0,4.0,76,0.00,,---,0.00,VWS V14.01,2013-04-28 18:12:00,
2013-04-28 14:15:00,53.7,46.7,30.23,SSW,205,0.0,4.0,77,0.00,,---,0.00,VWS V14.01,2013-04-28 18:15:00,
2013-04-28 14:16:00,53.5,46.8,30.23,SSW,203,0.0,4.0,78,0.00,,---,0.00,VWS V14.01,2013-04-28 18:16:00,
2013-04-28 14:17:00,53.4,46.7,30.23,SSW,203,0.0,4.0,78,0.00,,---,0.00,VWS V14.01,2013-04-28 18:17:00,
2013-04-28 14:21:00,53.1,47.1,30.23,SSW,209,0.0,4.0,80,0.00,,---,0.00,VWS V14.01,2013-04-28 18:21:00,
2013-04-28 14:22:00,52.9,46.9,30.23,SW,219,2.0,4.0,80,0.00,,---,0.00,VWS V14.01,2013-04-28 18:22:00,
2013-04-28 14:23:00,52.8,46.8,30.23,SW,219,0.0,4.0,80,0.00,,---,0.00,VWS V14.01,2013-04-28 18:23:00,
2013-04-28 14:26:00,52.4,47.1,30.23,SSW,199,2.0,4.0,82,0.00,,---,0.00,VWS V14.01,2013-04-28 18:26:00,
2013-04-28 14:28:00,52.2,46.9,30.23,ESE,123,1.0,4.0,82,0.00,,---,0.00,VWS V14.01,2013-04-28 18:28:00,
2013-04-28 14:31:00,51.9,46.9,30.23,SSW,211,0.0,5.0,83,0.00,,---,0.00,VWS V14.01,2013-04-28 18:31:00,
2013-04-28 14:33:00,51.7,47.0,30.23,SSW,207,1.0,5.0,84,0.01,,---,0.01,VWS V14.01,2013-04-28 18:33:00,
2013-04-28 14:34:00,51.7,47.0,30.23,SSW,192,0.0,5.0,84,0.01,,---,0.01,VWS V14.01,2013-04-28 18:34:00,
2013-04-28 14:36:00,51.5,46.8,30.23,South,180,0.0,6.0,84,0.01,,---,0.01,VWS V14.01,2013-04-28 18:36:00,
2013-04-28 14:38:00,51.4,47.0,30.23,SSW,194,0.0,6.0,85,0.01,,---,0.01,VWS V14.01,2013-04-28 18:38:00,
2013-04-28 14:39:00,51.4,47.0,30.23,SSW,194,0.0,6.0,85,0.01,,---,0.01,VWS V14.01,2013-04-28 18:39:00,
2013-04-28 14:41:00,51.3,47.3,30.23,South,172,6.0,6.0,86,0.01,,---,0.01,VWS V14.01,2013-04-28 18:41:00,
2013-04-28 14:44:00,51.2,47.2,30.23,South,188,0.0,6.0,86,0.01,,---,0.01,VWS V14.01,2013-04-28 18:44:00,
2013-04-28 14:46:00,51.1,47.4,30.23,SSW,209,0.0,6.0,87,0.01,,---,0.01,VWS V14.01,2013-04-28 18:46:00,
2013-04-28 14:49:00,51.0,47.3,30.23,SSW,209,0.0,6.0,87,0.01,,---,0.01,VWS V14.01,2013-04-28 18:49:00,
2013-04-28 14:50:00,51.0,47.3,30.23,SSW,209,2.0,6.0,87,0.01,,---,0.01,VWS V14.01,2013-04-28 18:50:00,
2013-04-28 14:53:00,50.9,47.5,30.23,SSW,196,0.0,6.0,88,0.01,,---,0.01,VWS V14.01,2013-04-28 18:53:00,
2013-04-28 14:54:00,50.8,47.4,30.23,WNW,287,2.0,6.0,88,0.01,,---,0.01,VWS V14.01,2013-04-28 18:54:00,
2013-04-28 14:55:00,50.8,47.4,30.23,WNW,287,0.0,6.0,88,0.01,,---,0.01,VWS V14.01,2013-04-28 18:55:00,
2013-04-28 14:58:00,50.7,47.6,30.23,SW,232,0.0,6.0,89,0.02,,---,0.02,VWS V14.01,2013-04-28 18:58:00,
2013-04-28 15:00:00,50.7,47.6,30.23,SW,232,0.0,6.0,89,0.02,,---,0.02,VWS V14.01,2013-04-28 19:00:00,
2013-04-28 15:01:00,50.8,48.0,30.23,SW,232,0.0,6.0,90,0.02,,---,0.02,VWS V14.01,2013-04-28 19:01:00,
2013-04-28 15:03:00,50.8,48.0,30.23,SW,232,0.0,6.0,90,0.02,,---,0.02,VWS V14.01,2013-04-28 19:03:00,
2013-04-28 15:05:00,50.7,47.9,30.23,SW,232,0.0,0.0,90,0.02,,---,0.02,VWS V14.01,2013-04-28 19:05:00,
2013-04-28 15:06:00,50.7,47.9,30.23,West,259,0.0,2.0,90,0.02,,---,0.02,VWS V14.01,2013-04-28 19:06:00,
2013-04-28 15:08:00,50.6,47.8,30.23,West,270,1.0,3.0,90,0.03,,---,0.03,VWS V14.01,2013-04-28 19:08:00,
2013-04-28 15:10:00,50.5,47.7,30.23,West,269,0.0,3.0,90,0.03,,---,0.03,VWS V14.01,2013-04-28 19:10:00,
2013-04-28 15:11:00,50.4,47.9,30.23,South,190,0.0,3.0,91,0.03,,---,0.03,VWS V14.01,2013-04-28 19:11:00,
2013-04-28 15:12:00,50.5,48.0,30.23,South,191,0.0,3.0,91,0.03,,---,0.03,VWS V14.01,2013-04-28 19:12:00,
2013-04-28 15:14:00,50.4,47.9,30.23,SW,232,0.0,3.0,91,0.03,,---,0.03,VWS V14.01,2013-04-28 19:14:00,
2013-04-28 15:15:00,50.4,47.9,30.23,SW,232,0.0,3.0,91,0.03,,---,0.03,VWS V14.01,2013-04-28 19:15:00,
2013-04-28 15:16:00,50.4,47.9,30.23,SW,232,0.0,3.0,91,0.03,,---,0.03,VWS V14.01,2013-04-28 19:16:00,
2013-04-28 15:17:00,50.5,48.0,30.23,SW,232,0.0,3.0,91,0.03,,---,0.03,VWS V14.01,2013-04-28 19:17:00,
2013-04-28 15:19:00,50.4,47.9,30.23,SSW,213,0.0,3.0,91,0.03,,---,0.03,VWS V14.01,2013-04-28 19:19:00,
2013-04-28 15:20:00,50.3,47.8,30.23,SSW,194,1.0,3.0,91,0.03,,---,0.03,VWS V14.01,2013-04-28 19:20:00,
2013-04-28 15:21:00,50.3,47.8,30.23,SSE,168,0.0,3.0,91,0.04,,---,0.04,VWS V14.01,2013-04-28 19:21:00,
2013-04-28 15:22:00,50.3,47.8,30.23,SSE,168,0.0,3.0,91,0.04,,---,0.04,VWS V14.01,2013-04-28 19:22:00,
2013-04-28 15:24:00,50.2,47.7,30.23,South,185,0.0,3.0,91,0.04,,---,0.04,VWS V14.01,2013-04-28 19:24:00,
2013-04-28 15:25:00,50.2,47.7,30.23,SSW,195,0.0,3.0,91,0.04,,---,0.04,VWS V14.01,2013-04-28 19:25:00,
2013-04-28 15:26:00,50.2,47.7,30.22,SSW,194,0.0,3.0,91,0.04,,---,0.04,VWS V14.01,2013-04-28 19:26:00,
2013-04-28 15:27:00,50.3,48.1,30.22,SSW,194,0.0,3.0,92,0.04,,---,0.04,VWS V14.01,2013-04-28 19:27:00,
2013-04-28 15:28:00,50.3,48.1,30.22,SSW,194,0.0,3.0,92,0.04,,---,0.04,VWS V14.01,2013-04-28 19:28:00,
2013-04-28 15:29:00,50.3,48.1,30.22,SSW,194,0.0,3.0,92,0.04,,---,0.04,VWS V14.01,2013-04-28 19:29:00,
2013-04-28 15:30:00,50.5,48.6,30.22,SSW,194,0.0,3.0,93,0.04,,---,0.04,VWS V14.01,2013-04-28 19:30:00,
2013-04-28 15:31:00,50.4,48.2,30.22,ESE,102,0.0,3.0,92,0.04,,---,0.04,VWS V14.01,2013-04-28 19:31:00,
2013-04-28 15:32:00,50.4,48.2,30.22,SSE,154,2.0,3.0,92,0.04,,---,0.04,VWS V14.01,2013-04-28 19:32:00,
2013-04-28 15:33:00,50.4,48.2,30.22,SSE,152,0.0,3.0,92,0.04,,---,0.04,VWS V14.01,2013-04-28 19:33:00,
2013-04-28 15:34:00,50.4,48.2,30.22,SSE,153,0.0,0.0,92,0.03,,---,0.04,VWS V14.01,2013-04-28 19:34:00,
2013-04-28 15:36:00,50.4,47.9,30.22,SSE,165,0.0,2.0,91,0.03,,---,0.04,VWS V14.01,2013-04-28 19:36:00,
2013-04-28 15:38:00,50.5,48.3,30.22,SSE,165,0.0,2.0,92,0.03,,---,0.04,VWS V14.01,2013-04-28 19:38:00,
2013-04-28 15:39:00,50.7,48.5,30.21,SSE,165,0.0,2.0,92,0.03,,---,0.04,VWS V14.01,2013-04-28 19:39:00,
2013-04-28 15:41:00,50.7,48.5,30.21,SSE,155,1.0,2.0,92,0.04,,---,0.05,VWS V14.01,2013-04-28 19:41:00,
2013-04-28 15:43:00,50.6,48.1,30.21,SW,220,0.0,3.0,91,0.04,,---,0.05,VWS V14.01,2013-04-28 19:43:00,
2013-04-28 15:44:00,50.5,48.0,30.21,SSW,209,3.0,7.0,91,0.04,,---,0.05,VWS V14.01,2013-04-28 19:44:00,
2013-04-28 15:45:00,50.5,48.0,30.21,SSW,209,0.0,7.0,91,0.04,,---,0.05,VWS V14.01,2013-04-28 19:45:00,
2013-04-28 15:46:00,50.6,48.1,30.21,SSE,168,0.0,7.0,91,0.04,,---,0.05,VWS V14.01,2013-04-28 19:46:00,
2013-04-28 15:48:00,50.6,48.1,30.21,South,171,0.0,7.0,91,0.04,,---,0.05,VWS V14.01,2013-04-28 19:48:00,
2013-04-28 15:49:00,50.6,48.1,30.20,South,171,3.0,7.0,91,0.04,,---,0.05,VWS V14.01,2013-04-28 19:49:00,
2013-04-28 15:50:00,50.5,48.0,30.20,SSW,202,0.0,7.0,91,0.04,,---,0.05,VWS V14.01,2013-04-28 19:50:00,
2013-04-28 15:53:00,50.6,48.1,30.20,SSW,202,0.0,7.0,91,0.04,,---,0.05,VWS V14.01,2013-04-28 19:53:00,
2013-04-28 15:54:00,50.6,48.1,30.20,SSW,202,0.0,7.0,91,0.04,,---,0.05,VWS V14.01,2013-04-28 19:54:00,
2013-04-28 15:55:00,50.7,48.5,30.20,SSW,203,0.0,7.0,92,0.04,,---,0.05,VWS V14.01,2013-04-28 19:55:00,
2013-04-28 15:56:00,50.7,48.5,30.20,South,190,0.0,7.0,92,0.04,,---,0.05,VWS V14.01,2013-04-28 19:56:00,
2013-04-28 15:58:00,50.7,48.2,30.20,SSW,195,0.0,7.0,91,0.04,,---,0.05,VWS V14.01,2013-04-28 19:58:00,
2013-04-28 15:59:00,50.6,48.1,30.20,South,190,0.0,7.0,91,0.04,,---,0.05,VWS V14.01,2013-04-28 19:59:00,
2013-04-28 16:00:00,50.6,48.1,30.20,South,190,0.0,7.0,91,0.04,,---,0.05,VWS V14.01,2013-04-28 20:00:00,
2013-04-28 16:02:00,50.6,47.8,30.20,South,186,0.0,7.0,90,0.04,,---,0.05,VWS V14.01,2013-04-28 20:02:00,
2013-04-28 16:03:00,50.6,47.8,30.20,South,186,0.0,7.0,90,0.04,,---,0.05,VWS V14.01,2013-04-28 20:03:00,
2013-04-28 16:05:00,50.7,48.2,30.20,SSE,159,3.0,3.0,91,0.03,,---,0.05,VWS V14.01,2013-04-28 20:05:00,
2013-04-28 16:07:00,50.7,48.2,30.19,SSE,168,2.0,3.0,91,0.03,,---,0.05,VWS V14.01,2013-04-28 20:07:00,
2013-04-28 16:08:00,50.7,47.9,30.20,SSW,197,0.0,5.0,90,0.03,,---,0.05,VWS V14.01,2013-04-28 20:08:00,
2013-04-28 16:09:00,50.7,47.9,30.20,SSW,196,0.0,5.0,90,0.03,,---,0.05,VWS V14.01,2013-04-28 20:09:00,
2013-04-28 16:10:00,50.8,48.0,30.19,SSW,196,0.0,5.0,90,0.03,,---,0.05,VWS V14.01,2013-04-28 20:10:00,
2013-04-28 16:12:00,50.8,48.0,30.20,East,101,1.0,5.0,90,0.03,,---,0.05,VWS V14.01,2013-04-28 20:12:00,
2013-04-28 16:14:00,51.0,48.2,30.19,East,101,0.0,5.0,90,0.03,,---,0.05,VWS V14.01,2013-04-28 20:14:00,
2013-04-28 16:15:00,51.0,48.2,30.19,East,101,0.0,5.0,90,0.03,,---,0.05,VWS V14.01,2013-04-28 20:15:00,
2013-04-28 16:17:00,51.0,48.2,30.19,ENE,71,0.0,5.0,90,0.03,,---,0.05,VWS V14.01,2013-04-28 20:17:00,
2013-04-28 16:19:00,51.0,47.9,30.19,West,265,2.0,5.0,89,0.03,,---,0.05,VWS V14.01,2013-04-28 20:19:00,
2013-04-28 16:21:00,51.1,48.0,30.19,West,266,0.0,5.0,89,0.03,,---,0.05,VWS V14.01,2013-04-28 20:21:00,
2013-04-28 16:22:00,51.1,47.7,30.19,West,265,0.0,5.0,88,0.03,,---,0.05,VWS V14.01,2013-04-28 20:22:00,
2013-04-28 16:24:00,51.2,48.1,30.19,South,170,0.0,5.0,89,0.03,,---,0.05,VWS V14.01,2013-04-28 20:24:00,
2013-04-28 16:26:00,51.2,47.8,30.19,South,170,0.0,5.0,88,0.03,,---,0.05,VWS V14.01,2013-04-28 20:26:00,
2013-04-28 16:27:00,51.2,47.8,30.19,South,191,0.0,5.0,88,0.03,,---,0.05,VWS V14.01,2013-04-28 20:27:00,
2013-04-28 16:29:00,51.3,47.6,30.19,South,191,0.0,5.0,87,0.03,,---,0.05,VWS V14.01,2013-04-28 20:29:00,
2013-04-28 16:31:00,51.4,48.0,30.19,SSW,192,0.0,5.0,88,0.03,,---,0.05,VWS V14.01,2013-04-28 20:31:00,
2013-04-28 16:34:00,51.4,47.4,30.19,SSW,194,0.0,5.0,86,0.03,,---,0.05,VWS V14.01,2013-04-28 20:34:00,
2013-04-28 16:35:00,51.4,47.4,30.19,SSW,194,0.0,0.0,86,0.01,,---,0.05,VWS V14.01,2013-04-28 20:35:00,
2013-04-28 16:37:00,51.5,47.5,30.19,SSE,150,0.0,4.0,86,0.01,,---,0.05,VWS V14.01,2013-04-28 20:37:00,
2013-04-28 16:39:00,51.5,47.8,30.19,SSE,151,0.0,4.0,87,0.01,,---,0.05,VWS V14.01,2013-04-28 20:39:00,
2013-04-28 16:40:00,51.5,47.5,30.19,SSE,150,0.0,4.0,86,0.01,,---,0.05,VWS V14.01,2013-04-28 20:40:00,
2013-04-28 16:42:00,51.6,47.6,30.19,SSE,152,0.0,4.0,86,0.01,,---,0.05,VWS V14.01,2013-04-28 20:42:00,
2013-04-28 16:45:00,51.7,47.0,30.19,WSW,250,0.0,4.0,84,0.01,,---,0.05,VWS V14.01,2013-04-28 20:45:00,
2013-04-28 16:46:00,51.7,47.3,30.19,WSW,249,0.0,4.0,85,0.01,,---,0.05,VWS V14.01,2013-04-28 20:46:00,
2013-04-28 16:48:00,51.7,47.3,30.19,South,184,0.0,4.0,85,0.01,,---,0.05,VWS V14.01,2013-04-28 20:48:00,
2013-04-28 16:50:00,51.8,47.4,30.18,ESE,123,0.0,4.0,85,0.01,,---,0.05,VWS V14.01,2013-04-28 20:50:00,
2013-04-28 16:51:00,51.8,47.4,30.18,ESE,120,0.0,4.0,85,0.01,,---,0.05,VWS V14.01,2013-04-28 20:51:00,
2013-04-28 16:53:00,51.7,47.0,30.18,NE,53,1.0,4.0,84,0.01,,---,0.05,VWS V14.01,2013-04-28 20:53:00,
2013-04-28 16:56:00,51.9,47.2,30.18,SSW,202,2.0,4.0,84,0.01,,---,0.05,VWS V14.01,2013-04-28 20:56:00,
2013-04-28 16:57:00,52.1,47.1,30.18,WSW,251,1.0,4.0,83,0.01,,---,0.05,VWS V14.01,2013-04-28 20:57:00,
2013-04-28 16:58:00,52.1,47.1,30.18,WSW,250,0.0,4.0,83,0.01,,---,0.05,VWS V14.01,2013-04-28 20:58:00,
2013-04-28 17:01:00,52.2,47.2,30.18,WSW,250,0.0,4.0,83,0.01,,---,0.05,VWS V14.01,2013-04-28 21:01:00,
2013-04-28 17:02:00,52.2,47.2,30.18,South,173,0.0,4.0,83,0.01,,---,0.05,VWS V14.01,2013-04-28 21:02:00,
2013-04-28 17:03:00,52.2,46.9,30.18,South,175,0.0,4.0,82,0.01,,---,0.05,VWS V14.01,2013-04-28 21:03:00,
2013-04-28 17:06:00,52.2,46.5,30.18,ESE,119,2.0,3.0,81,0.00,,---,0.05,VWS V14.01,2013-04-28 21:06:00,
2013-04-28 17:07:00,52.2,46.5,30.18,ESE,114,0.0,3.0,81,0.00,,---,0.05,VWS V14.01,2013-04-28 21:07:00,
2013-04-28 17:08:00,52.2,46.5,30.18,ESE,114,0.0,3.0,81,0.00,,---,0.05,VWS V14.01,2013-04-28 21:08:00,
2013-04-28 17:11:00,52.2,46.2,30.19,SSE,150,1.0,3.0,80,0.00,,---,0.05,VWS V14.01,2013-04-28 21:11:00,
2013-04-28 17:12:00,52.1,46.1,30.19,SSE,152,0.0,3.0,80,0.00,,---,0.05,VWS V14.01,2013-04-28 21:12:00,
2013-04-28 17:13:00,52.2,46.2,30.19,SSE,152,0.0,3.0,80,0.00,,---,0.05,VWS V14.01,2013-04-28 21:13:00,
2013-04-28 17:14:00,52.2,46.2,30.19,SSW,213,1.0,3.0,80,0.00,,---,0.05,VWS V14.01,2013-04-28 21:14:00,
2013-04-28 17:16:00,52.1,46.1,30.19,SSE,165,0.0,4.0,80,0.00,,---,0.05,VWS V14.01,2013-04-28 21:16:00,
2013-04-28 17:17:00,52.1,46.1,30.19,SSE,165,0.0,4.0,80,0.00,,---,0.05,VWS V14.01,2013-04-28 21:17:00,
2013-04-28 17:18:00,52.1,46.1,30.19,SSE,164,0.0,4.0,80,0.00,,---,0.05,VWS V14.01,2013-04-28 21:18:00,
2013-04-28 17:19:00,52.1,46.1,30.19,SSE,165,0.0,4.0,80,0.00,,---,0.05,VWS V14.01,2013-04-28 21:19:00,
2013-04-28 17:22:00,52.1,46.5,30.19,South,173,0.0,4.0,81,0.00,,---,0.05,VWS V14.01,2013-04-28 21:22:00,
2013-04-28 17:23:00,52.0,46.4,30.19,South,173,0.0,4.0,81,0.00,,---,0.05,VWS V14.01,2013-04-28 21:23:00,
2013-04-28 17:24:00,52.0,46.4,30.19,South,175,1.0,4.0,81,0.00,,---,0.05,VWS V14.01,2013-04-28 21:24:00,
2013-04-28 17:25:00,52.0,46.0,30.18,South,174,1.0,4.0,80,0.00,,---,0.05,VWS V14.01,2013-04-28 21:25:00,
2013-04-28 17:27:00,52.0,45.7,30.18,South,186,0.0,4.0,79,0.00,,---,0.05,VWS V14.01,2013-04-28 21:27:00,
2013-04-28 17:28:00,52.0,45.7,30.18,South,185,0.0,4.0,79,0.00,,---,0.05,VWS V14.01,2013-04-28 21:28:00,
2013-04-28 17:29:00,52.0,45.7,30.19,ENE,75,0.0,4.0,79,0.00,,---,0.05,VWS V14.01,2013-04-28 21:29:00,
2013-04-28 17:30:00,52.0,46.0,30.19,South,184,0.0,4.0,80,0.00,,---,0.05,VWS V14.01,2013-04-28 21:30:00,
2013-04-28 17:32:00,52.0,45.7,30.19,SE,132,0.0,4.0,79,0.00,,---,0.05,VWS V14.01,2013-04-28 21:32:00,
2013-04-28 17:33:00,52.0,45.7,30.19,SE,132,0.0,4.0,79,0.00,,---,0.05,VWS V14.01,2013-04-28 21:33:00,
2013-04-28 17:34:00,52.0,45.7,30.19,SE,132,0.0,0.0,79,0.00,,---,0.05,VWS V14.01,2013-04-28 21:34:00,
2013-04-28 17:35:00,52.0,45.7,30.19,SSE,156,0.0,3.0,79,0.00,,---,0.05,VWS V14.01,2013-04-28 21:35:00,
2013-04-28 17:38:00,52.0,45.7,30.19,South,185,0.0,3.0,79,0.00,,---,0.05,VWS V14.01,2013-04-28 21:38:00,
2013-04-28 17:39:00,52.0,45.7,30.19,South,184,0.0,3.0,79,0.00,,---,0.05,VWS V14.01,2013-04-28 21:39:00,
2013-04-28 17:40:00,51.9,45.6,30.18,South,184,0.0,3.0,79,0.00,,---,0.05,VWS V14.01,2013-04-28 21:40:00,
2013-04-28 17:43:00,51.9,46.3,30.18,South,184,0.0,3.0,81,0.00,,---,0.05,VWS V14.01,2013-04-28 21:43:00,
2013-04-28 17:44:00,51.9,46.3,30.18,South,184,0.0,3.0,81,0.00,,---,0.05,VWS V14.01,2013-04-28 21:44:00,
2013-04-28 17:46:00,51.8,45.8,30.18,South,184,0.0,3.0,80,0.00,,---,0.05,VWS V14.01,2013-04-28 21:46:00,
2013-04-28 17:48:00,51.8,45.5,30.18,South,184,0.0,3.0,79,0.00,,---,0.05,VWS V14.01,2013-04-28 21:48:00,
2013-04-28 17:49:00,51.8,45.5,30.18,South,184,0.0,3.0,79,0.00,,---,0.05,VWS V14.01,2013-04-28 21:49:00,
2013-04-28 17:50:00,51.8,45.8,30.18,South,184,0.0,3.0,80,0.00,,---,0.05,VWS V14.01,2013-04-28 21:50:00,
2013-04-28 17:52:00,51.9,46.3,30.18,South,184,0.0,3.0,81,0.00,,---,0.05,VWS V14.01,2013-04-28 21:52:00,
2013-04-28 17:53:00,51.8,46.5,30.18,South,184,0.0,3.0,82,0.00,,---,0.05,VWS V14.01,2013-04-28 21:53:00,
2013-04-28 17:54:00,51.8,46.5,30.18,South,185,0.0,3.0,82,0.00,,---,0.05,VWS V14.01,2013-04-28 21:54:00,
2013-04-28 17:55:00,51.8,46.2,30.18,South,185,0.0,3.0,81,0.00,,---,0.05,VWS V14.01,2013-04-28 21:55:00,
2013-04-28 17:57:00,51.8,46.5,30.17,South,185,0.0,3.0,82,0.00,,---,0.05,VWS V14.01,2013-04-28 21:57:00,
2013-04-28 17:59:00,51.8,46.5,30.17,South,176,1.0,3.0,82,0.00,,---,0.05,VWS V14.01,2013-04-28 21:59:00,
2013-04-28 18:00:00,51.7,45.7,30.17,South,176,0.0,3.0,80,0.00,,---,0.05,VWS V14.01,2013-04-28 22:00:00,
2013-04-28 18:02:00,51.8,46.5,30.17,South,176,0.0,3.0,82,0.00,,---,0.05,VWS V14.01,2013-04-28 22:02:00,
2013-04-28 18:04:00,51.7,46.4,30.17,South,178,1.0,3.0,82,0.00,,---,0.05,VWS V14.01,2013-04-28 22:04:00,
2013-04-28 18:05:00,51.7,46.4,30.17,South,177,0.0,0.0,82,0.00,,---,0.05,VWS V14.01,2013-04-28 22:05:00,
2013-04-28 18:06:00,51.7,46.4,30.17,South,177,0.0,0.0,82,0.00,,---,0.05,VWS V14.01,2013-04-28 22:06:00,
2013-04-28 18:08:00,51.7,46.4,30.17,South,176,0.0,0.0,82,0.00,,---,0.05,VWS V14.01,2013-04-28 22:08:00,
2013-04-28 18:09:00,51.6,46.6,30.17,South,176,0.0,1.0,83,0.00,,---,0.05,VWS V14.01,2013-04-28 22:09:00,
2013-04-28 18:10:00,51.6,46.6,30.17,South,177,0.0,1.0,83,0.00,,---,0.05,VWS V14.01,2013-04-28 22:10:00,
2013-04-28 18:11:00,51.6,46.6,30.17,South,182,0.0,2.0,83,0.00,,---,0.05,VWS V14.01,2013-04-28 22:11:00,
2013-04-28 18:14:00,51.5,46.8,30.17,South,181,0.0,2.0,84,0.00,,---,0.05,VWS V14.01,2013-04-28 22:14:00,
2013-04-28 18:15:00,51.4,46.7,30.17,NE,54,2.0,2.0,84,0.00,,---,0.05,VWS V14.01,2013-04-28 22:15:00,
2013-04-28 18:16:00,51.4,46.4,30.17,ESE,117,0.0,2.0,83,0.00,,---,0.05,VWS V14.01,2013-04-28 22:16:00,
2013-04-28 18:19:00,51.3,46.3,30.17,ESE,117,0.0,2.0,83,0.00,,---,0.05,VWS V14.01,2013-04-28 22:19:00,
2013-04-28 18:20:00,51.2,46.2,30.17,ESE,117,0.0,2.0,83,0.00,,---,0.05,VWS V14.01,2013-04-28 22:20:00,
2013-04-28 18:21:00,51.2,46.2,30.17,ESE,117,0.0,2.0,83,0.00,,---,0.05,VWS V14.01,2013-04-28 22:21:00,
2013-04-28 18:24:00,51.2,46.5,30.16,ESE,117,0.0,2.0,84,0.00,,---,0.05,VWS V14.01,2013-04-28 22:24:00,
2013-04-28 18:25:00,51.1,46.8,30.16,ESE,113,0.0,2.0,85,0.00,,---,0.05,VWS V14.01,2013-04-28 22:25:00,
2013-04-28 18:26:00,51.1,46.8,30.16,ESE,113,0.0,2.0,85,0.00,,---,0.05,VWS V14.01,2013-04-28 22:26:00,
2013-04-28 18:27:00,51.1,46.8,30.16,ESE,113,0.0,2.0,85,0.00,,---,0.05,VWS V14.01,2013-04-28 22:27:00,
2013-04-28 18:30:00,51.0,46.3,30.15,ENE,68,0.0,2.0,84,0.00,,---,0.05,VWS V14.01,2013-04-28 22:30:00,
2013-04-28 18:31:00,50.9,46.6,30.15,ENE,69,0.0,2.0,85,0.00,,---,0.05,VWS V14.01,2013-04-28 22:31:00,
2013-04-28 18:33:00,50.9,46.2,30.15,ENE,70,0.0,2.0,84,0.00,,---,0.05,VWS V14.01,2013-04-28 22:33:00,
2013-04-28 18:35:00,50.8,46.2,30.15,ENE,69,0.0,0.0,84,0.00,,---,0.05,VWS V14.01,2013-04-28 22:35:00,
2013-04-28 18:37:00,50.9,46.6,30.15,ENE,69,0.0,0.0,85,0.00,,---,0.05,VWS V14.01,2013-04-28 22:37:00,
2013-04-28 18:38:00,50.9,46.6,30.15,ENE,69,0.0,0.0,85,0.00,,---,0.05,VWS V14.01,2013-04-28 22:38:00,
2013-04-28 18:40:00,50.9,46.2,30.15,East,79,2.0,3.0,84,0.00,,---,0.05,VWS V14.01,2013-04-28 22:40:00,
2013-04-28 18:43:00,50.9,46.2,30.15,East,92,1.0,3.0,84,0.00,,---,0.05,VWS V14.01,2013-04-28 22:43:00,
2013-04-28 18:45:00,51.0,46.3,30.15,ENE,75,0.0,3.0,84,0.00,,---,0.05,VWS V14.01,2013-04-28 22:45:00,
2013-04-28 18:48:00,51.0,46.3,30.15,SSE,149,0.0,3.0,84,0.00,,---,0.05,VWS V14.01,2013-04-28 22:48:00,
2013-04-28 18:50:00,51.0,46.7,30.15,SSE,149,0.0,3.0,85,0.00,,---,0.05,VWS V14.01,2013-04-28 22:50:00,
2013-04-28 18:51:00,50.9,46.2,30.15,SSE,149,0.0,3.0,84,0.00,,---,0.05,VWS V14.01,2013-04-28 22:51:00,
2013-04-28 18:53:00,50.9,46.2,30.14,SSE,149,0.0,3.0,84,0.00,,---,0.05,VWS V14.01,2013-04-28 22:53:00,
2013-04-28 18:54:00,50.9,46.2,30.14,SSE,149,0.0,3.0,84,0.00,,---,0.05,VWS V14.01,2013-04-28 22:54:00,
2013-04-28 18:55:00,50.9,46.2,30.14,SSE,149,0.0,3.0,84,0.00,,---,0.05,VWS V14.01,2013-04-28 22:55:00,
2013-04-28 18:56:00,50.9,46.2,30.14,SSE,149,0.0,3.0,84,0.00,,---,0.05,VWS V14.01,2013-04-28 22:56:00,
2013-04-28 18:59:00,50.8,46.2,30.14,SSE,148,0.0,3.0,84,0.00,,---,0.05,VWS V14.01,2013-04-28 22:59:00,
2013-04-28 19:00:00,50.9,46.2,30.14,SSE,148,0.0,3.0,84,0.00,,---,0.05,VWS V14.01,2013-04-28 23:00:00,
2013-04-28 19:01:00,50.9,46.6,30.14,SSE,148,0.0,3.0,85,0.00,,---,0.05,VWS V14.01,2013-04-28 23:01:00,
2013-04-28 19:04:00,50.8,46.2,30.14,SSE,148,0.0,3.0,84,0.00,,---,0.05,VWS V14.01,2013-04-28 23:04:00,
2013-04-28 19:06:00,50.8,46.5,30.14,SSE,148,0.0,0.0,85,0.00,,---,0.05,VWS V14.01,2013-04-28 23:06:00,
2013-04-28 19:09:00,50.8,46.5,30.14,SSE,148,0.0,0.0,85,0.00,,---,0.05,VWS V14.01,2013-04-28 23:09:00,
2013-04-28 19:11:00,50.7,46.0,30.14,SSE,148,0.0,0.0,84,0.00,,---,0.05,VWS V14.01,2013-04-28 23:11:00,
2013-04-28 19:12:00,50.7,46.0,30.14,SSE,148,0.0,0.0,84,0.00,,---,0.05,VWS V14.01,2013-04-28 23:12:00,
2013-04-28 19:14:00,50.7,45.7,30.14,SSE,148,0.0,1.0,83,0.00,,---,0.05,VWS V14.01,2013-04-28 23:14:00,
2013-04-28 19:15:00,50.7,45.7,30.14,SSE,148,0.0,1.0,83,0.00,,---,0.05,VWS V14.01,2013-04-28 23:15:00,
2013-04-28 19:16:00,50.7,45.7,30.14,SSE,148,1.0,2.0,83,0.00,,---,0.05,VWS V14.01,2013-04-28 23:16:00,
2013-04-28 19:17:00,50.8,45.8,30.14,SSE,148,0.0,2.0,83,0.00,,---,0.05,VWS V14.01,2013-04-28 23:17:00,
2013-04-28 19:18:00,50.8,45.8,30.14,SSE,148,0.0,2.0,83,0.00,,---,0.05,VWS V14.01,2013-04-28 23:18:00,
2013-04-28 19:19:00,50.8,46.2,30.13,SSE,148,0.0,2.0,84,0.00,,---,0.05,VWS V14.01,2013-04-28 23:19:00,
2013-04-28 19:20:00,50.8,46.2,30.13,SSE,148,0.0,2.0,84,0.00,,---,0.05,VWS V14.01,2013-04-28 23:20:00,
2013-04-28 19:21:00,50.7,45.7,30.13,SSE,148,0.0,2.0,83,0.00,,---,0.05,VWS V14.01,2013-04-28 23:21:00,
2013-04-28 19:22:00,50.7,45.7,30.13,SSE,148,0.0,2.0,83,0.00,,---,0.05,VWS V14.01,2013-04-28 23:22:00,
2013-04-28 19:23:00,50.7,45.7,30.13,SSE,148,0.0,2.0,83,0.00,,---,0.05,VWS V14.01,2013-04-28 23:23:00,
2013-04-28 19:24:00,50.7,45.7,30.13,SE,128,0.0,4.0,83,0.00,,---,0.05,VWS V14.01,2013-04-28 23:24:00,
2013-04-28 19:26:00,50.7,45.7,30.13,SE,128,0.0,4.0,83,0.00,,---,0.05,VWS V14.01,2013-04-28 23:26:00,
2013-04-28 19:27:00,50.7,45.7,30.13,SE,128,0.0,4.0,83,0.00,,---,0.05,VWS V14.01,2013-04-28 23:27:00,
2013-04-28 19:28:00,50.8,45.5,30.13,SE,128,0.0,4.0,82,0.00,,---,0.05,VWS V14.01,2013-04-28 23:28:00,
2013-04-28 19:30:00,50.8,45.5,30.13,SE,128,0.0,4.0,82,0.00,,---,0.05,VWS V14.01,2013-04-28 23:30:00,
2013-04-28 19:31:00,50.8,45.5,30.13,SE,128,0.0,4.0,82,0.00,,---,0.05,VWS V14.01,2013-04-28 23:31:00,
2013-04-28 19:32:00,50.8,45.5,30.13,SE,128,0.0,4.0,82,0.00,,---,0.05,VWS V14.01,2013-04-28 23:32:00,
2013-04-28 19:33:00,50.9,45.6,30.13,ESE,117,3.0,4.0,82,0.00,,---,0.05,VWS V14.01,2013-04-28 23:33:00,
2013-04-28 19:35:00,50.9,45.3,30.13,ESE,121,0.0,0.0,81,0.00,,---,0.05,VWS V14.01,2013-04-28 23:35:00,
2013-04-28 19:36:00,50.9,45.3,30.13,ESE,121,0.0,0.0,81,0.00,,---,0.05,VWS V14.01,2013-04-28 23:36:00,
2013-04-28 19:37:00,50.9,45.3,30.13,ESE,121,0.0,0.0,81,0.00,,---,0.05,VWS V14.01,2013-04-28 23:37:00,
2013-04-28 19:38:00,50.9,45.3,30.14,South,190,0.0,3.0,81,0.00,,---,0.05,VWS V14.01,2013-04-28 23:38:00,
2013-04-28 19:40:00,50.9,45.3,30.14,South,190,0.0,3.0,81,0.00,,---,0.05,VWS V14.01,2013-04-28 23:40:00,
2013-04-28 19:42:00,50.9,45.6,30.14,SE,128,1.0,3.0,82,0.00,,---,0.05,VWS V14.01,2013-04-28 23:42:00,
2013-04-28 19:43:00,50.9,45.6,30.14,SSE,157,1.0,4.0,82,0.00,,---,0.05,VWS V14.01,2013-04-28 23:43:00,
2013-04-28 19:45:00,50.8,45.5,30.14,SSE,157,0.0,4.0,82,0.00,,---,0.05,VWS V14.01,2013-04-28 23:45:00,
2013-04-28 19:47:00,50.8,45.5,30.14,SSE,156,0.0,4.0,82,0.00,,---,0.05,VWS V14.01,2013-04-28 23:47:00,
2013-04-28 19:48:00,50.8,44.9,30.14,SSE,156,0.0,4.0,80,0.00,,---,0.05,VWS V14.01,2013-04-28 23:48:00,
2013-04-28 19:50:00,50.9,45.3,30.14,ESE,121,0.0,4.0,81,0.00,,---,0.05,VWS V14.01,2013-04-28 23:50:00,
2013-04-28 19:52:00,50.9,45.0,30.14,ESE,123,0.0,4.0,80,0.00,,---,0.05,VWS V14.01,2013-04-28 23:52:00,
2013-04-28 19:54:00,51.0,45.1,30.14,SE,124,0.0,4.0,80,0.00,,---,0.05,VWS V14.01,2013-04-28 23:54:00,
2013-04-28 19:55:00,51.0,45.4,30.14,SE,124,0.0,4.0,81,0.00,,---,0.05,VWS V14.01,2013-04-28 23:55:00,
2013-04-28 19:58:00,51.0,45.4,30.14,SE,124,0.0,4.0,81,0.00,,---,0.05,VWS V14.01,2013-04-28 23:58:00,
2013-04-28 19:59:00,51.0,45.4,30.14,East,98,0.0,4.0,81,0.00,,---,0.05,VWS V14.01,2013-04-28 23:59:00,
2013-04-28 20:00:00,51.0,45.7,30.14,East,98,0.0,4.0,82,0.00,,---,0.05,VWS V14.01,2013-04-29 00:00:00,
2013-04-28 20:01:00,50.9,45.6,30.14,East,98,0.0,4.0,82,0.00,,---,0.05,VWS V14.01,2013-04-29 00:01:00,
2013-04-28 20:03:00,50.9,45.3,30.14,East,98,0.0,4.0,81,0.00,,---,0.05,VWS V14.01,2013-04-29 00:03:00,
2013-04-28 20:05:00,50.9,45.0,30.13,ESE,103,0.0,0.0,80,0.00,,---,0.05,VWS V14.01,2013-04-29 00:05:00,
2013-04-28 20:06:00,50.9,45.3,30.13,ESE,103,0.0,0.0,81,0.00,,---,0.05,VWS V14.01,2013-04-29 00:06:00,
2013-04-28 20:08:00,50.9,45.6,30.12,East,92,0.0,0.0,82,0.00,,---,0.05,VWS V14.01,2013-04-29 00:08:00,
2013-04-28 20:09:00,50.9,45.6,30.12,East,92,0.0,0.0,82,0.00,,---,0.05,VWS V14.01,2013-04-29 00:09:00,
2013-04-28 20:11:00,50.9,45.6,30.12,East,92,1.0,1.0,82,0.00,,---,0.05,VWS V14.01,2013-04-29 00:11:00,
2013-04-28 20:12:00,50.8,45.5,30.12,East,92,0.0,2.0,82,0.00,,---,0.05,VWS V14.01,2013-04-29 00:12:00,
2013-04-28 20:14:00,50.9,45.6,30.12,East,92,0.0,2.0,82,0.00,,---,0.05,VWS V14.01,2013-04-29 00:14:00,
2013-04-28 20:15:00,50.9,45.6,30.12,East,92,0.0,2.0,82,0.00,,---,0.05,VWS V14.01,2013-04-29 00:15:00,
2013-04-28 20:17:00,50.8,45.5,30.12,East,88,0.0,2.0,82,0.00,,---,0.05,VWS V14.01,2013-04-29 00:17:00,
2013-04-28 20:19:00,50.7,45.7,30.12,East,88,0.0,2.0,83,0.00,,---,0.05,VWS V14.01,2013-04-29 00:19:00,
2013-04-28 20:20:00,50.7,45.7,30.12,East,87,0.0,2.0,83,0.00,,---,0.05,VWS V14.01,2013-04-29 00:20:00,
2013-04-28 20:21:00,50.7,45.7,30.13,East,87,0.0,2.0,83,0.00,,---,0.05,VWS V14.01,2013-04-29 00:21:00,
2013-04-28 20:22:00,50.7,45.7,30.13,East,87,0.0,2.0,83,0.00,,---,0.05,VWS V14.01,2013-04-29 00:22:00,
2013-04-28 20:24:00,50.6,45.6,30.13,East,87,0.0,2.0,83,0.00,,---,0.05,VWS V14.01,2013-04-29 00:24:00,
2013-04-28 20:26:00,50.6,45.6,30.13,ENE,62,0.0,4.0,83,0.00,,---,0.05,VWS V14.01,2013-04-29 00:26:00,
2013-04-28 20:27:00,50.7,45.7,30.13,ESE,117,2.0,4.0,83,0.00,,---,0.05,VWS V14.01,2013-04-29 00:27:00,
2013-04-28 20:28:00,50.7,45.4,30.14,ESE,117,0.0,4.0,82,0.00,,---,0.05,VWS V14.01,2013-04-29 00:28:00,
2013-04-28 20:29:00,50.8,45.8,30.14,ESE,117,0.0,4.0,83,0.00,,---,0.05,VWS V14.01,2013-04-29 00:29:00,
2013-04-28 20:31:00,50.8,45.8,30.14,ESE,117,0.0,4.0,83,0.00,,---,0.05,VWS V14.01,2013-04-29 00:31:00,
2013-04-28 20:32:00,50.8,45.8,30.14,ESE,117,0.0,4.0,83,0.00,,---,0.05,VWS V14.01,2013-04-29 00:32:00,
2013-04-28 20:33:00,50.8,45.8,30.14,ESE,117,0.0,4.0,83,0.00,,---,0.05,VWS V14.01,2013-04-29 00:33:00,
2013-04-28 20:35:00,50.8,45.8,30.13,ESE,117,0.0,0.0,83,0.00,,---,0.05,VWS V14.01,2013-04-29 00:35:00,
2013-04-28 20:36:00,50.8,45.8,30.14,ESE,117,0.0,0.0,83,0.00,,---,0.05,VWS V14.01,2013-04-29 00:36:00,
2013-04-28 20:37:00,50.8,45.8,30.14,ESE,117,0.0,0.0,83,0.00,,---,0.05,VWS V14.01,2013-04-29 00:37:00,
2013-04-28 20:38:00,50.8,45.8,30.14,ESE,115,0.0,1.0,83,0.00,,---,0.05,VWS V14.01,2013-04-29 00:38:00,
2013-04-28 20:41:00,50.7,46.0,30.14,ESE,115,0.0,1.0,84,0.00,,---,0.05,VWS V14.01,2013-04-29 00:41:00,
2013-04-28 20:42:00,50.7,46.0,30.14,ESE,115,0.0,1.0,84,0.00,,---,0.05,VWS V14.01,2013-04-29 00:42:00,
2013-04-28 20:43:00,50.7,46.0,30.14,ESE,115,0.0,1.0,84,0.00,,---,0.05,VWS V14.01,2013-04-29 00:43:00,
2013-04-28 20:46:00,50.7,46.0,30.14,ESE,115,0.0,1.0,84,0.00,,---,0.05,VWS V14.01,2013-04-29 00:46:00,
2013-04-28 20:47:00,50.6,46.0,30.14,ESE,115,0.0,1.0,84,0.00,,---,0.05,VWS V14.01,2013-04-29 00:47:00,
2013-04-28 20:48:00,50.6,46.0,30.14,ESE,115,0.0,1.0,84,0.00,,---,0.05,VWS V14.01,2013-04-29 00:48:00,
2013-04-28 20:51:00,50.6,46.0,30.14,ESE,114,0.0,1.0,84,0.00,,---,0.05,VWS V14.01,2013-04-29 00:51:00,
2013-04-28 20:52:00,50.6,46.0,30.14,ESE,116,1.0,2.0,84,0.00,,---,0.05,VWS V14.01,2013-04-29 00:52:00,
2013-04-28 20:53:00,50.6,45.6,30.14,ESE,119,0.0,2.0,83,0.00,,---,0.05,VWS V14.01,2013-04-29 00:53:00,
2013-04-28 20:54:00,50.6,45.6,30.14,ESE,119,0.0,2.0,83,0.00,,---,0.05,VWS V14.01,2013-04-29 00:54:00,
2013-04-28 20:56:00,50.7,45.7,30.15,ESE,118,0.0,2.0,83,0.00,,---,0.05,VWS V14.01,2013-04-29 00:56:00,
2013-04-28 20:57:00,50.7,45.7,30.15,ESE,118,0.0,2.0,83,0.00,,---,0.05,VWS V14.01,2013-04-29 00:57:00,
2013-04-28 20:58:00,50.7,45.7,30.15,ESE,118,0.0,2.0,83,0.00,,---,0.05,VWS V14.01,2013-04-29 00:58:00,
2013-04-28 20:59:00,50.8,45.8,30.15,ESE,118,0.0,2.0,83,0.00,,---,0.05,VWS V14.01,2013-04-29 00:59:00,
2013-04-28 21:00:00,50.8,45.8,30.15,East,93,1.0,2.0,83,0.00,,---,0.05,VWS V14.01,2013-04-29 01:00:00,
2013-04-28 21:01:00,50.8,45.5,30.15,East,88,0.0,2.0,82,0.00,,---,0.05,VWS V14.01,2013-04-29 01:01:00,
2013-04-28 21:02:00,50.8,45.8,30.15,East,89,0.0,2.0,83,0.00,,---,0.05,VWS V14.01,2013-04-29 01:02:00,
2013-04-28 21:03:00,50.8,45.8,30.15,East,88,0.0,2.0,83,0.00,,---,0.05,VWS V14.01,2013-04-29 01:03:00,
2013-04-28 21:05:00,50.8,45.8,30.15,East,89,0.0,0.0,83,0.00,,---,0.05,VWS V14.01,2013-04-29 01:05:00,
2013-04-28 21:07:00,50.8,45.8,30.15,East,89,0.0,0.0,83,0.00,,---,0.05,VWS V14.01,2013-04-29 01:07:00,
2013-04-28 21:09:00,50.7,45.7,30.15,East,89,0.0,0.0,83,0.00,,---,0.05,VWS V14.01,2013-04-29 01:09:00,
2013-04-28 21:10:00,50.8,45.8,30.15,East,89,1.0,1.0,83,0.00,,---,0.05,VWS V14.01,2013-04-29 01:10:00,
2013-04-28 21:11:00,50.8,45.8,30.15,East,89,0.0,1.0,83,0.00,,---,0.05,VWS V14.01,2013-04-29 01:11:00,
2013-04-28 21:12:00,50.8,45.8,30.15,East,89,0.0,1.0,83,0.00,,---,0.05,VWS V14.01,2013-04-29 01:12:00,
2013-04-28 21:13:00,50.8,45.8,30.15,East,89,0.0,1.0,83,0.00,,---,0.05,VWS V14.01,2013-04-29 01:13:00,
2013-04-28 21:14:00,50.8,45.8,30.15,East,89,0.0,1.0,83,0.00,,---,0.05,VWS V14.01,2013-04-29 01:14:00,
2013-04-28 21:15:00,50.8,45.8,30.15,East,89,0.0,1.0,83,0.00,,---,0.05,VWS V14.01,2013-04-29 01:15:00,
2013-04-28 21:17:00,50.7,45.7,30.15,ESE,119,0.0,2.0,83,0.00,,---,0.05,VWS V14.01,2013-04-29 01:17:00,
2013-04-28 21:18:00,50.7,45.7,30.14,ESE,118,0.0,2.0,83,0.00,,---,0.05,VWS V14.01,2013-04-29 01:18:00,
2013-04-28 21:20:00,50.7,45.4,30.14,ESE,119,0.0,2.0,82,0.00,,---,0.05,VWS V14.01,2013-04-29 01:20:00,
2013-04-28 21:22:00,50.8,45.8,30.14,ESE,118,0.0,2.0,83,0.00,,---,0.05,VWS V14.01,2013-04-29 01:22:00,
2013-04-28 21:23:00,50.8,45.8,30.14,ESE,118,0.0,2.0,83,0.00,,---,0.05,VWS V14.01,2013-04-29 01:23:00,
2013-04-28 21:24:00,50.8,45.8,30.14,ESE,118,0.0,2.0,83,0.00,,---,0.05,VWS V14.01,2013-04-29 01:24:00,
2013-04-28 21:25:00,50.8,45.8,30.14,ESE,121,0.0,2.0,83,0.00,,---,0.05,VWS V14.01,2013-04-29 01:25:00,
2013-04-28 21:26:00,50.7,45.7,30.14,ESE,121,0.0,2.0,83,0.00,,---,0.05,VWS V14.01,2013-04-29 01:26:00,
2013-04-28 21:28:00,50.7,45.7,30.14,ESE,121,0.0,2.0,83,0.00,,---,0.05,VWS V14.01,2013-04-29 01:28:00,
2013-04-28 21:29:00,50.7,45.7,30.14,East,80,0.0,2.0,83,0.00,,---,0.05,VWS V14.01,2013-04-29 01:29:00,
2013-04-28 21:31:00,50.6,45.6,30.14,East,96,0.0,2.0,83,0.00,,---,0.05,VWS V14.01,2013-04-29 01:31:00,
2013-04-28 21:33:00,50.6,45.6,30.14,East,96,0.0,2.0,83,0.00,,---,0.05,VWS V14.01,2013-04-29 01:33:00,
2013-04-28 21:34:00,50.6,45.6,30.14,East,96,0.0,2.0,83,0.00,,---,0.05,VWS V14.01,2013-04-29 01:34:00,
2013-04-28 21:37:00,50.7,45.7,30.14,East,96,0.0,0.0,83,0.00,,---,0.05,VWS V14.01,2013-04-29 01:37:00,
2013-04-28 21:38:00,50.6,45.6,30.14,East,98,1.0,1.0,83,0.00,,---,0.05,VWS V14.01,2013-04-29 01:38:00,
2013-04-28 21:39:00,50.6,45.6,30.14,East,98,0.0,1.0,83,0.00,,---,0.05,VWS V14.01,2013-04-29 01:39:00,
2013-04-28 21:42:00,50.6,45.6,30.14,East,98,0.0,1.0,83,0.00,,---,0.05,VWS V14.01,2013-04-29 01:42:00,
2013-04-28 21:43:00,50.6,45.6,30.14,East,98,0.0,1.0,83,0.00,,---,0.05,VWS V14.01,2013-04-29 01:43:00,
2013-04-28 21:45:00,50.6,45.3,30.14,ESE,102,0.0,2.0,82,0.00,,---,0.05,VWS V14.01,2013-04-29 01:45:00,
2013-04-28 21:46:00,50.6,45.3,30.14,ESE,102,0.0,2.0,82,0.00,,---,0.05,VWS V14.01,2013-04-29 01:46:00,
2013-04-28 21:48:00,50.7,45.4,30.14,East,100,3.0,3.0,82,0.00,,---,0.05,VWS V14.01,2013-04-29 01:48:00,
2013-04-28 21:51:00,50.7,45.4,30.14,East,96,0.0,3.0,82,0.00,,---,0.05,VWS V14.01,2013-04-29 01:51:00,
2013-04-28 21:53:00,50.7,45.1,30.14,SE,125,0.0,4.0,81,0.00,,---,0.05,VWS V14.01,2013-04-29 01:53:00,
2013-04-28 21:54:00,50.7,45.4,30.14,SE,125,0.0,4.0,82,0.00,,---,0.05,VWS V14.01,2013-04-29 01:54:00,
2013-04-28 21:56:00,50.7,45.1,30.14,ESE,119,0.0,4.0,81,0.00,,---,0.05,VWS V14.01,2013-04-29 01:56:00,
2013-04-28 21:58:00,50.7,45.4,30.14,ESE,117,0.0,4.0,82,0.00,,---,0.05,VWS V14.01,2013-04-29 01:58:00,
2013-04-28 22:00:00,50.7,45.1,30.14,ESE,117,0.0,4.0,81,0.00,,---,0.05,VWS V14.01,2013-04-29 02:00:00,
2013-04-28 22:01:00,50.7,45.1,30.14,ESE,117,0.0,4.0,81,0.00,,---,0.05,VWS V14.01,2013-04-29 02:01:00,
2013-04-28 22:02:00,50.8,45.5,30.14,ESE,117,0.0,4.0,82,0.00,,---,0.05,VWS V14.01,2013-04-29 02:02:00,
2013-04-28 22:04:00,50.7,45.4,30.14,ESE,117,0.0,4.0,82,0.00,,---,0.05,VWS V14.01,2013-04-29 02:04:00,
2013-04-28 22:05:00,50.7,45.4,30.14,ESE,117,0.0,0.0,82,0.00,,---,0.05,VWS V14.01,2013-04-29 02:05:00,
2013-04-28 22:06:00,50.7,45.4,30.14,ESE,117,0.0,0.0,82,0.00,,---,0.05,VWS V14.01,2013-04-29 02:06:00,
2013-04-28 22:08:00,50.6,45.3,30.14,ESE,117,0.0,2.0,82,0.00,,---,0.05,VWS V14.01,2013-04-29 02:08:00,
2013-04-28 22:09:00,50.6,45.0,30.14,ESE,117,0.0,2.0,81,0.00,,---,0.05,VWS V14.01,2013-04-29 02:09:00,
2013-04-28 22:10:00,50.7,45.1,30.14,ESE,117,0.0,2.0,81,0.00,,---,0.05,VWS V14.01,2013-04-29 02:10:00,
2013-04-28 22:11:00,50.7,45.1,30.14,ESE,117,0.0,2.0,81,0.00,,---,0.05,VWS V14.01,2013-04-29 02:11:00,
2013-04-28 22:12:00,50.7,45.1,30.14,ESE,117,0.0,2.0,81,0.00,,---,0.05,VWS V14.01,2013-04-29 02:12:00,
2013-04-28 22:14:00,50.7,45.1,30.14,ESE,117,0.0,2.0,81,0.00,,---,0.05,VWS V14.01,2013-04-29 02:14:00,
2013-04-28 22:16:00,50.8,45.2,30.14,ESE,117,0.0,2.0,81,0.00,,---,0.05,VWS V14.01,2013-04-29 02:16:00,
2013-04-28 22:17:00,50.7,44.8,30.14,ESE,117,1.0,2.0,80,0.00,,---,0.05,VWS V14.01,2013-04-29 02:17:00,
2013-04-28 22:19:00,50.8,44.9,30.14,ESE,117,0.0,2.0,80,0.00,,---,0.05,VWS V14.01,2013-04-29 02:19:00,
2013-04-28 22:20:00,50.8,44.9,30.14,ESE,117,0.0,2.0,80,0.00,,---,0.05,VWS V14.01,2013-04-29 02:20:00,
2013-04-28 22:21:00,50.8,44.9,30.15,ESE,117,0.0,2.0,80,0.00,,---,0.05,VWS V14.01,2013-04-29 02:21:00,
2013-04-28 22:22:00,50.8,44.9,30.15,ESE,117,0.0,2.0,80,0.00,,---,0.05,VWS V14.01,2013-04-29 02:22:00,
2013-04-28 22:23:00,50.8,45.2,30.14,ESE,117,1.0,2.0,81,0.00,,---,0.05,VWS V14.01,2013-04-29 02:23:00,
2013-04-28 22:25:00,50.8,45.2,30.14,ESE,117,0.0,2.0,81,0.00,,---,0.05,VWS V14.01,2013-04-29 02:25:00,
2013-04-28 22:26:00,50.7,45.1,30.14,ESE,117,0.0,2.0,81,0.00,,---,0.05,VWS V14.01,2013-04-29 02:26:00,
2013-04-28 22:27:00,50.7,45.1,30.14,ESE,117,0.0,2.0,81,0.00,,---,0.05,VWS V14.01,2013-04-29 02:27:00,
2013-04-28 22:28:00,50.7,45.4,30.14,ESE,117,0.0,2.0,82,0.00,,---,0.05,VWS V14.01,2013-04-29 02:28:00,
2013-04-28 22:30:00,50.6,45.0,30.14,ESE,113,0.0,2.0,81,0.00,,---,0.05,VWS V14.01,2013-04-29 02:30:00,
2013-04-28 22:31:00,50.6,45.3,30.14,ESE,113,0.0,2.0,82,0.00,,---,0.05,VWS V14.01,2013-04-29 02:31:00,
2013-04-28 22:32:00,50.6,45.3,30.14,ESE,113,0.0,2.0,82,0.00,,---,0.05,VWS V14.01,2013-04-29 02:32:00,
2013-04-28 22:33:00,50.6,45.3,30.14,ESE,113,0.0,2.0,82,0.00,,---,0.05,VWS V14.01,2013-04-29 02:33:00,
2013-04-28 22:35:00,50.5,45.2,30.14,ESE,113,0.0,0.0,82,0.00,,---,0.05,VWS V14.01,2013-04-29 02:35:00,
2013-04-28 22:36:00,50.5,45.2,30.14,ESE,113,0.0,0.0,82,0.00,,---,0.05,VWS V14.01,2013-04-29 02:36:00,
2013-04-28 22:37:00,50.5,45.2,30.14,ESE,113,0.0,0.0,82,0.00,,---,0.05,VWS V14.01,2013-04-29 02:37:00,
2013-04-28 22:38:00,50.5,45.5,30.14,ESE,113,1.0,2.0,83,0.00,,---,0.05,VWS V14.01,2013-04-29 02:38:00,
2013-04-28 22:40:00,50.5,45.2,30.13,ESE,113,1.0,2.0,82,0.00,,---,0.05,VWS V14.01,2013-04-29 02:40:00,
2013-04-28 22:41:00,50.5,45.2,30.13,ESE,113,0.0,2.0,82,0.00,,---,0.05,VWS V14.01,2013-04-29 02:41:00,
2013-04-28 22:42:00,50.5,45.2,30.13,East,82,0.0,4.0,82,0.00,,---,0.05,VWS V14.01,2013-04-29 02:42:00,
2013-04-28 22:43:00,50.5,45.2,30.13,East,82,1.0,4.0,82,0.00,,---,0.05,VWS V14.01,2013-04-29 02:43:00,
2013-04-28 22:44:00,50.5,45.2,30.14,East,82,2.0,4.0,82,0.00,,---,0.05,VWS V14.01,2013-04-29 02:44:00,
2013-04-28 22:45:00,50.5,44.9,30.13,East,91,0.0,4.0,81,0.00,,---,0.05,VWS V14.01,2013-04-29 02:45:00,
2013-04-28 22:47:00,50.5,44.9,30.13,East,91,0.0,4.0,81,0.00,,---,0.05,VWS V14.01,2013-04-29 02:47:00,
2013-04-28 22:48:00,50.5,44.9,30.13,East,91,0.0,4.0,81,0.00,,---,0.05,VWS V14.01,2013-04-29 02:48:00,
2013-04-28 22:49:00,50.5,45.2,30.13,East,91,0.0,4.0,82,0.00,,---,0.05,VWS V14.01,2013-04-29 02:49:00,
2013-04-28 22:50:00,50.5,45.2,30.13,East,91,0.0,4.0,82,0.00,,---,0.05,VWS V14.01,2013-04-29 02:50:00,
2013-04-28 22:52:00,50.5,45.2,30.13,East,91,0.0,4.0,82,0.00,,---,0.05,VWS V14.01,2013-04-29 02:52:00,
2013-04-28 22:53:00,50.4,45.1,30.13,East,91,0.0,4.0,82,0.00,,---,0.05,VWS V14.01,2013-04-29 02:53:00,
2013-04-28 22:54:00,50.4,45.1,30.13,East,91,0.0,4.0,82,0.00,,---,0.05,VWS V14.01,2013-04-29 02:54:00,
2013-04-28 22:55:00,50.4,45.1,30.13,East,91,0.0,4.0,82,0.00,,---,0.05,VWS V14.01,2013-04-29 02:55:00,
2013-04-28 22:58:00,50.4,44.8,30.13,East,94,2.0,4.0,81,0.00,,---,0.05,VWS V14.01,2013-04-29 02:58:00,
2013-04-28 23:00:00,50.4,44.8,30.13,ESE,111,0.0,4.0,81,0.00,,---,0.05,VWS V14.01,2013-04-29 03:00:00,
2013-04-28 23:01:00,50.4,44.8,30.13,ESE,111,0.0,4.0,81,0.00,,---,0.05,VWS V14.01,2013-04-29 03:01:00,
2013-04-28 23:03:00,50.4,44.8,30.13,ESE,110,1.0,4.0,81,0.00,,---,0.05,VWS V14.01,2013-04-29 03:03:00,
2013-04-28 23:04:00,50.4,44.8,30.13,ESE,111,0.0,4.0,81,0.00,,---,0.05,VWS V14.01,2013-04-29 03:04:00,
2013-04-28 23:06:00,50.4,44.8,30.13,ESE,111,0.0,0.0,81,0.00,,---,0.05,VWS V14.01,2013-04-29 03:06:00,
2013-04-28 23:08:00,50.4,44.8,30.13,ESE,110,0.0,1.0,81,0.00,,---,0.05,VWS V14.01,2013-04-29 03:08:00,
2013-04-28 23:09:00,50.4,44.8,30.13,ESE,111,0.0,1.0,81,0.00,,---,0.05,VWS V14.01,2013-04-29 03:09:00,
2013-04-28 23:11:00,50.4,44.5,30.13,ESE,110,0.0,1.0,80,0.00,,---,0.05,VWS V14.01,2013-04-29 03:11:00,
2013-04-28 23:12:00,50.4,44.5,30.13,ESE,110,0.0,1.0,80,0.00,,---,0.05,VWS V14.01,2013-04-29 03:12:00,
2013-04-28 23:14:00,50.4,44.5,30.13,SSE,163,0.0,5.0,80,0.00,,---,0.05,VWS V14.01,2013-04-29 03:14:00,
2013-04-28 23:16:00,50.4,44.8,30.13,SSE,163,0.0,5.0,81,0.00,,---,0.05,VWS V14.01,2013-04-29 03:16:00,
2013-04-28 23:17:00,50.4,44.8,30.13,SSE,163,0.0,5.0,81,0.00,,---,0.05,VWS V14.01,2013-04-29 03:17:00,
2013-04-28 23:19:00,50.3,44.7,30.13,SSE,159,1.0,5.0,81,0.00,,---,0.05,VWS V14.01,2013-04-29 03:19:00,
2013-04-28 23:22:00,50.3,44.7,30.13,SSE,160,1.0,5.0,81,0.00,,---,0.05,VWS V14.01,2013-04-29 03:22:00,
2013-04-28 23:23:00,50.3,44.7,30.13,SSE,153,0.0,5.0,81,0.00,,---,0.05,VWS V14.01,2013-04-29 03:23:00,
2013-04-28 23:24:00,50.3,44.7,30.13,South,180,0.0,5.0,81,0.00,,---,0.05,VWS V14.01,2013-04-29 03:24:00,
2013-04-28 23:27:00,50.3,44.4,30.13,SSE,163,0.0,5.0,80,0.00,,---,0.05,VWS V14.01,2013-04-29 03:27:00,
2013-04-28 23:28:00,50.3,44.4,30.13,East,94,0.0,5.0,80,0.00,,---,0.05,VWS V14.01,2013-04-29 03:28:00,
2013-04-28 23:30:00,50.3,44.7,30.13,East,94,0.0,5.0,81,0.00,,---,0.05,VWS V14.01,2013-04-29 03:30:00,
2013-04-28 23:32:00,50.3,44.7,30.13,East,94,0.0,5.0,81,0.00,,---,0.05,VWS V14.01,2013-04-29 03:32:00,
2013-04-28 23:33:00,50.3,44.7,30.13,East,94,0.0,5.0,81,0.00,,---,0.05,VWS V14.01,2013-04-29 03:33:00,
2013-04-28 23:34:00,50.3,45.0,30.13,East,94,0.0,5.0,82,0.00,,---,0.05,VWS V14.01,2013-04-29 03:34:00,
2013-04-28 23:35:00,50.3,44.7,30.13,East,94,0.0,0.0,81,0.00,,---,0.05,VWS V14.01,2013-04-29 03:35:00,
2013-04-28 23:36:00,50.3,44.7,30.13,ENE,68,2.0,2.0,81,0.00,,---,0.05,VWS V14.01,2013-04-29 03:36:00,
2013-04-28 23:37:00,50.3,44.7,30.13,East,90,0.0,2.0,81,0.00,,---,0.05,VWS V14.01,2013-04-29 03:37:00,
2013-04-28 23:38:00,50.3,45.0,30.13,East,94,0.0,2.0,82,0.00,,---,0.05,VWS V14.01,2013-04-29 03:38:00,
2013-04-28 23:39:00,50.2,44.6,30.13,ESE,117,0.0,2.0,81,0.00,,---,0.05,VWS V14.01,2013-04-29 03:39:00,
2013-04-28 23:41:00,50.2,44.6,30.13,ESE,115,0.0,2.0,81,0.00,,---,0.05,VWS V14.01,2013-04-29 03:41:00,
2013-04-28 23:42:00,50.2,44.9,30.13,ESE,115,0.0,2.0,82,0.00,,---,0.05,VWS V14.01,2013-04-29 03:42:00,
2013-04-28 23:43:00,50.2,44.9,30.13,ESE,116,0.0,2.0,82,0.00,,---,0.05,VWS V14.01,2013-04-29 03:43:00,
2013-04-28 23:46:00,50.2,44.9,30.13,ESE,115,0.0,2.0,82,0.00,,---,0.05,VWS V14.01,2013-04-29 03:46:00,
2013-04-28 23:47:00,50.1,44.8,30.13,ESE,117,0.0,2.0,82,0.00,,---,0.05,VWS V14.01,2013-04-29 03:47:00,
2013-04-28 23:48:00,50.1,44.8,30.13,ESE,117,0.0,2.0,82,0.00,,---,0.05,VWS V14.01,2013-04-29 03:48:00,
2013-04-28 23:51:00,50.2,44.9,30.13,ESE,117,0.0,2.0,82,0.00,,---,0.05,VWS V14.01,2013-04-29 03:51:00,
2013-04-28 23:52:00,50.2,44.9,30.13,ESE,115,0.0,2.0,82,0.00,,---,0.05,VWS V14.01,2013-04-29 03:52:00,
2013-04-28 23:53:00,50.2,44.9,30.13,East,90,0.0,2.0,82,0.00,,---,0.05,VWS V14.01,2013-04-29 03:53:00,
2013-04-28 23:56:00,50.3,45.0,30.13,NNE,26,3.0,3.0,82,0.00,,---,0.05,VWS V14.01,2013-04-29 03:56:00,
2013-04-28 23:57:00,50.3,45.0,30.13,SSE,167,3.0,3.0,82,0.00,,---,0.05,VWS V14.01,2013-04-29 03:57:00,
2013-04-28 23:58:00,50.3,45.0,30.13,SSE,161,0.0,3.0,82,0.00,,---,0.05,VWS V14.01,2013-04-29 03:58:00,
2013-04-28 23:59:00,50.3,45.0,30.13,ESE,113,0.0,3.0,82,0.00,,---,0.05,VWS V14.01,2013-04-29 03:59:00,